<?xml version="1.0" encoding="UTF-8" standalone="no" ?>
<gpx xmlns="http://www.topografix.com/GPX/1/1" xmlns:xsi="http://www.w3.org/2001/XMLSchema-instance" xsi:schemaLocation="http://www.topografix.com/GPX/1/1 http://www.topografix.com/GPX/1/1/gpx.xsd" version="1.1" creator="VisuGPX - https://www.visugpx.com">
  <metadata>
    <name>frans marcheurs</name>
    <desc><![CDATA[itinéraire de randonnée]]></desc>
  </metadata>
  <trk>
    <name><![CDATA[Tracé actuel: 02 DEC 2013 13:57]]></name>
    <trkseg>
      <trkpt lat="45.96439" lon="4.70119">
        <ele>351.98</ele>
        <time>2013-12-02T12:57:25Z</time>
      </trkpt>
      <trkpt lat="45.96439" lon="4.70118">
        <ele>353.9</ele>
        <time>2013-12-02T12:57:26Z</time>
      </trkpt>
      <trkpt lat="45.96437" lon="4.70116">
        <ele>351.98</ele>
        <time>2013-12-02T12:57:57Z</time>
      </trkpt>
      <trkpt lat="45.96437" lon="4.70116">
        <ele>351.98</ele>
        <time>2013-12-02T12:57:58Z</time>
      </trkpt>
      <trkpt lat="45.96436" lon="4.70116">
        <ele>353.9</ele>
        <time>2013-12-02T12:58:12Z</time>
      </trkpt>
      <trkpt lat="45.96434" lon="4.70103">
        <ele>353.9</ele>
        <time>2013-12-02T12:58:31Z</time>
      </trkpt>
      <trkpt lat="45.96436" lon="4.70098">
        <ele>353.9</ele>
        <time>2013-12-02T12:58:41Z</time>
      </trkpt>
      <trkpt lat="45.96435" lon="4.70092">
        <ele>353.9</ele>
        <time>2013-12-02T12:58:54Z</time>
      </trkpt>
      <trkpt lat="45.96435" lon="4.70091">
        <ele>353.42</ele>
        <time>2013-12-02T12:58:57Z</time>
      </trkpt>
      <trkpt lat="45.96434" lon="4.70071">
        <ele>353.9</ele>
        <time>2013-12-02T12:59:11Z</time>
      </trkpt>
      <trkpt lat="45.96433" lon="4.70052">
        <ele>353.42</ele>
        <time>2013-12-02T12:59:25Z</time>
      </trkpt>
      <trkpt lat="45.96432" lon="4.70037">
        <ele>353.42</ele>
        <time>2013-12-02T12:59:36Z</time>
      </trkpt>
      <trkpt lat="45.96428" lon="4.70028">
        <ele>353.42</ele>
        <time>2013-12-02T12:59:43Z</time>
      </trkpt>
      <trkpt lat="45.96427" lon="4.70025">
        <ele>353.42</ele>
        <time>2013-12-02T12:59:46Z</time>
      </trkpt>
      <trkpt lat="45.96423" lon="4.70015">
        <ele>352.94</ele>
        <time>2013-12-02T12:59:58Z</time>
      </trkpt>
      <trkpt lat="45.96416" lon="4.7001">
        <ele>352.94</ele>
        <time>2013-12-02T13:00:04Z</time>
      </trkpt>
      <trkpt lat="45.96395" lon="4.69987">
        <ele>351.98</ele>
        <time>2013-12-02T13:00:22Z</time>
      </trkpt>
      <trkpt lat="45.96389" lon="4.69974">
        <ele>351.5</ele>
        <time>2013-12-02T13:00:32Z</time>
      </trkpt>
      <trkpt lat="45.96379" lon="4.69965">
        <ele>350.06</ele>
        <time>2013-12-02T13:00:45Z</time>
      </trkpt>
      <trkpt lat="45.96374" lon="4.69966">
        <ele>350.06</ele>
        <time>2013-12-02T13:00:49Z</time>
      </trkpt>
      <trkpt lat="45.96372" lon="4.69968">
        <ele>349.58</ele>
        <time>2013-12-02T13:00:52Z</time>
      </trkpt>
      <trkpt lat="45.96352" lon="4.69972">
        <ele>349.58</ele>
        <time>2013-12-02T13:01:10Z</time>
      </trkpt>
      <trkpt lat="45.9635" lon="4.69972">
        <ele>349.58</ele>
        <time>2013-12-02T13:01:12Z</time>
      </trkpt>
      <trkpt lat="45.96331" lon="4.69982">
        <ele>349.1</ele>
        <time>2013-12-02T13:01:29Z</time>
      </trkpt>
      <trkpt lat="45.96321" lon="4.69972">
        <ele>349.1</ele>
        <time>2013-12-02T13:01:46Z</time>
      </trkpt>
      <trkpt lat="45.96322" lon="4.69969">
        <ele>348.13</ele>
        <time>2013-12-02T13:01:49Z</time>
      </trkpt>
      <trkpt lat="45.96322" lon="4.69962">
        <ele>347.17</ele>
        <time>2013-12-02T13:01:53Z</time>
      </trkpt>
      <trkpt lat="45.96318" lon="4.69937">
        <ele>344.29</ele>
        <time>2013-12-02T13:02:09Z</time>
      </trkpt>
      <trkpt lat="45.96316" lon="4.69932">
        <ele>343.81</ele>
        <time>2013-12-02T13:02:12Z</time>
      </trkpt>
      <trkpt lat="45.96309" lon="4.69924">
        <ele>342.37</ele>
        <time>2013-12-02T13:02:19Z</time>
      </trkpt>
      <trkpt lat="45.96305" lon="4.69923">
        <ele>341.89</ele>
        <time>2013-12-02T13:02:22Z</time>
      </trkpt>
      <trkpt lat="45.96298" lon="4.69893">
        <ele>338.04</ele>
        <time>2013-12-02T13:02:39Z</time>
      </trkpt>
      <trkpt lat="45.96299" lon="4.69867">
        <ele>335.16</ele>
        <time>2013-12-02T13:02:55Z</time>
      </trkpt>
      <trkpt lat="45.96299" lon="4.69852">
        <ele>333.23</ele>
        <time>2013-12-02T13:03:05Z</time>
      </trkpt>
      <trkpt lat="45.963" lon="4.69845">
        <ele>333.23</ele>
        <time>2013-12-02T13:03:09Z</time>
      </trkpt>
      <trkpt lat="45.963" lon="4.6984">
        <ele>332.75</ele>
        <time>2013-12-02T13:03:12Z</time>
      </trkpt>
      <trkpt lat="45.96301" lon="4.69812">
        <ele>329.39</ele>
        <time>2013-12-02T13:03:30Z</time>
      </trkpt>
      <trkpt lat="45.96302" lon="4.69788">
        <ele>326.02</ele>
        <time>2013-12-02T13:03:44Z</time>
      </trkpt>
      <trkpt lat="45.96301" lon="4.69768">
        <ele>324.58</ele>
        <time>2013-12-02T13:03:56Z</time>
      </trkpt>
      <trkpt lat="45.96301" lon="4.6976">
        <ele>323.14</ele>
        <time>2013-12-02T13:04:01Z</time>
      </trkpt>
      <trkpt lat="45.96304" lon="4.69748">
        <ele>321.7</ele>
        <time>2013-12-02T13:04:09Z</time>
      </trkpt>
      <trkpt lat="45.96314" lon="4.69723">
        <ele>319.3</ele>
        <time>2013-12-02T13:04:26Z</time>
      </trkpt>
      <trkpt lat="45.96322" lon="4.69699">
        <ele>317.37</ele>
        <time>2013-12-02T13:04:42Z</time>
      </trkpt>
      <trkpt lat="45.96322" lon="4.69694">
        <ele>316.89</ele>
        <time>2013-12-02T13:04:45Z</time>
      </trkpt>
      <trkpt lat="45.96325" lon="4.69676">
        <ele>314.49</ele>
        <time>2013-12-02T13:04:57Z</time>
      </trkpt>
      <trkpt lat="45.96327" lon="4.69668">
        <ele>313.53</ele>
        <time>2013-12-02T13:05:03Z</time>
      </trkpt>
      <trkpt lat="45.96328" lon="4.69661">
        <ele>311.6</ele>
        <time>2013-12-02T13:05:08Z</time>
      </trkpt>
      <trkpt lat="45.96329" lon="4.69656">
        <ele>312.09</ele>
        <time>2013-12-02T13:05:11Z</time>
      </trkpt>
      <trkpt lat="45.96333" lon="4.6963">
        <ele>310.16</ele>
        <time>2013-12-02T13:05:27Z</time>
      </trkpt>
      <trkpt lat="45.96338" lon="4.69602">
        <ele>308.24</ele>
        <time>2013-12-02T13:05:44Z</time>
      </trkpt>
      <trkpt lat="45.96347" lon="4.69572">
        <ele>305.84</ele>
        <time>2013-12-02T13:06:03Z</time>
      </trkpt>
      <trkpt lat="45.96353" lon="4.69546">
        <ele>302.95</ele>
        <time>2013-12-02T13:06:19Z</time>
      </trkpt>
      <trkpt lat="45.96358" lon="4.69524">
        <ele>301.03</ele>
        <time>2013-12-02T13:06:33Z</time>
      </trkpt>
      <trkpt lat="45.9635" lon="4.69515">
        <ele>300.07</ele>
        <time>2013-12-02T13:06:41Z</time>
      </trkpt>
      <trkpt lat="45.96335" lon="4.69513">
        <ele>299.11</ele>
        <time>2013-12-02T13:06:52Z</time>
      </trkpt>
      <trkpt lat="45.96333" lon="4.6951">
        <ele>299.11</ele>
        <time>2013-12-02T13:06:54Z</time>
      </trkpt>
      <trkpt lat="45.96333" lon="4.69504">
        <ele>298.15</ele>
        <time>2013-12-02T13:06:57Z</time>
      </trkpt>
      <trkpt lat="45.96341" lon="4.69478">
        <ele>296.22</ele>
        <time>2013-12-02T13:07:12Z</time>
      </trkpt>
      <trkpt lat="45.96346" lon="4.69451">
        <ele>293.34</ele>
        <time>2013-12-02T13:07:28Z</time>
      </trkpt>
      <trkpt lat="45.96351" lon="4.69431">
        <ele>291.9</ele>
        <time>2013-12-02T13:07:41Z</time>
      </trkpt>
      <trkpt lat="45.96353" lon="4.69421">
        <ele>290.94</ele>
        <time>2013-12-02T13:07:47Z</time>
      </trkpt>
      <trkpt lat="45.96354" lon="4.69414">
        <ele>289.97</ele>
        <time>2013-12-02T13:07:51Z</time>
      </trkpt>
      <trkpt lat="45.9636" lon="4.69393">
        <ele>288.05</ele>
        <time>2013-12-02T13:08:05Z</time>
      </trkpt>
      <trkpt lat="45.96363" lon="4.69386">
        <ele>287.09</ele>
        <time>2013-12-02T13:08:10Z</time>
      </trkpt>
      <trkpt lat="45.96364" lon="4.69382">
        <ele>286.61</ele>
        <time>2013-12-02T13:08:12Z</time>
      </trkpt>
      <trkpt lat="45.9637" lon="4.6936">
        <ele>284.21</ele>
        <time>2013-12-02T13:08:27Z</time>
      </trkpt>
      <trkpt lat="45.96374" lon="4.69356">
        <ele>283.73</ele>
        <time>2013-12-02T13:08:31Z</time>
      </trkpt>
      <trkpt lat="45.96378" lon="4.69345">
        <ele>282.28</ele>
        <time>2013-12-02T13:08:39Z</time>
      </trkpt>
      <trkpt lat="45.96379" lon="4.69341">
        <ele>281.32</ele>
        <time>2013-12-02T13:08:41Z</time>
      </trkpt>
      <trkpt lat="45.96384" lon="4.6931">
        <ele>278.44</ele>
        <time>2013-12-02T13:08:59Z</time>
      </trkpt>
      <trkpt lat="45.96384" lon="4.69309">
        <ele>277.96</ele>
        <time>2013-12-02T13:09:00Z</time>
      </trkpt>
      <trkpt lat="45.96391" lon="4.69281">
        <ele>274.59</ele>
        <time>2013-12-02T13:09:17Z</time>
      </trkpt>
      <trkpt lat="45.96393" lon="4.69271">
        <ele>274.11</ele>
        <time>2013-12-02T13:09:24Z</time>
      </trkpt>
      <trkpt lat="45.96414" lon="4.6927">
        <ele>273.15</ele>
        <time>2013-12-02T13:09:40Z</time>
      </trkpt>
      <trkpt lat="45.96435" lon="4.69266">
        <ele>271.23</ele>
        <time>2013-12-02T13:09:57Z</time>
      </trkpt>
      <trkpt lat="45.96457" lon="4.69267">
        <ele>270.27</ele>
        <time>2013-12-02T13:10:13Z</time>
      </trkpt>
      <trkpt lat="45.9648" lon="4.69271">
        <ele>269.31</ele>
        <time>2013-12-02T13:10:30Z</time>
      </trkpt>
      <trkpt lat="45.96502" lon="4.69275">
        <ele>268.35</ele>
        <time>2013-12-02T13:10:46Z</time>
      </trkpt>
      <trkpt lat="45.96523" lon="4.69284">
        <ele>267.86</ele>
        <time>2013-12-02T13:11:04Z</time>
      </trkpt>
      <trkpt lat="45.96548" lon="4.69294">
        <ele>267.86</ele>
        <time>2013-12-02T13:11:23Z</time>
      </trkpt>
      <trkpt lat="45.9657" lon="4.69303">
        <ele>267.86</ele>
        <time>2013-12-02T13:11:42Z</time>
      </trkpt>
      <trkpt lat="45.96588" lon="4.69296">
        <ele>267.38</ele>
        <time>2013-12-02T13:11:57Z</time>
      </trkpt>
      <trkpt lat="45.96589" lon="4.69289">
        <ele>266.9</ele>
        <time>2013-12-02T13:12:02Z</time>
      </trkpt>
      <trkpt lat="45.96597" lon="4.69266">
        <ele>263.54</ele>
        <time>2013-12-02T13:12:19Z</time>
      </trkpt>
      <trkpt lat="45.96613" lon="4.69241">
        <ele>261.62</ele>
        <time>2013-12-02T13:12:38Z</time>
      </trkpt>
      <trkpt lat="45.96617" lon="4.69217">
        <ele>260.17</ele>
        <time>2013-12-02T13:12:53Z</time>
      </trkpt>
      <trkpt lat="45.9661" lon="4.69199">
        <ele>256.81</ele>
        <time>2013-12-02T13:13:06Z</time>
      </trkpt>
      <trkpt lat="45.96609" lon="4.69196">
        <ele>256.33</ele>
        <time>2013-12-02T13:13:08Z</time>
      </trkpt>
      <trkpt lat="45.96608" lon="4.69165">
        <ele>253.93</ele>
        <time>2013-12-02T13:13:26Z</time>
      </trkpt>
      <trkpt lat="45.96607" lon="4.69154">
        <ele>253.93</ele>
        <time>2013-12-02T13:13:33Z</time>
      </trkpt>
      <trkpt lat="45.96616" lon="4.69143">
        <ele>253.44</ele>
        <time>2013-12-02T13:13:42Z</time>
      </trkpt>
      <trkpt lat="45.96619" lon="4.69138">
        <ele>253.44</ele>
        <time>2013-12-02T13:13:46Z</time>
      </trkpt>
      <trkpt lat="45.96623" lon="4.69134">
        <ele>253.93</ele>
        <time>2013-12-02T13:13:50Z</time>
      </trkpt>
      <trkpt lat="45.96641" lon="4.69116">
        <ele>252.48</ele>
        <time>2013-12-02T13:14:08Z</time>
      </trkpt>
      <trkpt lat="45.96657" lon="4.69092">
        <ele>252</ele>
        <time>2013-12-02T13:14:26Z</time>
      </trkpt>
      <trkpt lat="45.96663" lon="4.69078">
        <ele>252</ele>
        <time>2013-12-02T13:14:35Z</time>
      </trkpt>
      <trkpt lat="45.96666" lon="4.69064">
        <ele>252.48</ele>
        <time>2013-12-02T13:14:44Z</time>
      </trkpt>
      <trkpt lat="45.96669" lon="4.69058">
        <ele>252</ele>
        <time>2013-12-02T13:14:48Z</time>
      </trkpt>
      <trkpt lat="45.96681" lon="4.69052">
        <ele>253.93</ele>
        <time>2013-12-02T13:15:00Z</time>
      </trkpt>
      <trkpt lat="45.96697" lon="4.69055">
        <ele>256.81</ele>
        <time>2013-12-02T13:15:16Z</time>
      </trkpt>
      <trkpt lat="45.96713" lon="4.69053">
        <ele>258.73</ele>
        <time>2013-12-02T13:15:32Z</time>
      </trkpt>
      <trkpt lat="45.96716" lon="4.69052">
        <ele>259.21</ele>
        <time>2013-12-02T13:15:35Z</time>
      </trkpt>
      <trkpt lat="45.96732" lon="4.69051">
        <ele>261.14</ele>
        <time>2013-12-02T13:15:50Z</time>
      </trkpt>
      <trkpt lat="45.96748" lon="4.69046">
        <ele>262.58</ele>
        <time>2013-12-02T13:16:04Z</time>
      </trkpt>
      <trkpt lat="45.96754" lon="4.69046">
        <ele>263.06</ele>
        <time>2013-12-02T13:16:08Z</time>
      </trkpt>
      <trkpt lat="45.96776" lon="4.69046">
        <ele>264.5</ele>
        <time>2013-12-02T13:16:24Z</time>
      </trkpt>
      <trkpt lat="45.96784" lon="4.69045">
        <ele>264.5</ele>
        <time>2013-12-02T13:16:30Z</time>
      </trkpt>
      <trkpt lat="45.96809" lon="4.69033">
        <ele>264.98</ele>
        <time>2013-12-02T13:16:51Z</time>
      </trkpt>
      <trkpt lat="45.96838" lon="4.69029">
        <ele>265.94</ele>
        <time>2013-12-02T13:17:12Z</time>
      </trkpt>
      <trkpt lat="45.96862" lon="4.69027">
        <ele>266.42</ele>
        <time>2013-12-02T13:17:30Z</time>
      </trkpt>
      <trkpt lat="45.96881" lon="4.69016">
        <ele>266.9</ele>
        <time>2013-12-02T13:17:45Z</time>
      </trkpt>
      <trkpt lat="45.96901" lon="4.69024">
        <ele>266.42</ele>
        <time>2013-12-02T13:17:59Z</time>
      </trkpt>
      <trkpt lat="45.96905" lon="4.69027">
        <ele>266.9</ele>
        <time>2013-12-02T13:18:02Z</time>
      </trkpt>
      <trkpt lat="45.96919" lon="4.69051">
        <ele>266.9</ele>
        <time>2013-12-02T13:18:17Z</time>
      </trkpt>
      <trkpt lat="45.96922" lon="4.69058">
        <ele>266.42</ele>
        <time>2013-12-02T13:18:21Z</time>
      </trkpt>
      <trkpt lat="45.96939" lon="4.69078">
        <ele>264.98</ele>
        <time>2013-12-02T13:18:38Z</time>
      </trkpt>
      <trkpt lat="45.9696" lon="4.69101">
        <ele>263.54</ele>
        <time>2013-12-02T13:18:58Z</time>
      </trkpt>
      <trkpt lat="45.96965" lon="4.69132">
        <ele>261.14</ele>
        <time>2013-12-02T13:19:14Z</time>
      </trkpt>
      <trkpt lat="45.96961" lon="4.69154">
        <ele>260.65</ele>
        <time>2013-12-02T13:19:28Z</time>
      </trkpt>
      <trkpt lat="45.96957" lon="4.6917">
        <ele>260.17</ele>
        <time>2013-12-02T13:19:36Z</time>
      </trkpt>
      <trkpt lat="45.96952" lon="4.69189">
        <ele>259.69</ele>
        <time>2013-12-02T13:19:46Z</time>
      </trkpt>
      <trkpt lat="45.96951" lon="4.69196">
        <ele>259.69</ele>
        <time>2013-12-02T13:19:50Z</time>
      </trkpt>
      <trkpt lat="45.96947" lon="4.69225">
        <ele>259.69</ele>
        <time>2013-12-02T13:20:06Z</time>
      </trkpt>
      <trkpt lat="45.96941" lon="4.69252">
        <ele>260.17</ele>
        <time>2013-12-02T13:20:22Z</time>
      </trkpt>
      <trkpt lat="45.96935" lon="4.69269">
        <ele>261.14</ele>
        <time>2013-12-02T13:20:32Z</time>
      </trkpt>
      <trkpt lat="45.9693" lon="4.69281">
        <ele>261.62</ele>
        <time>2013-12-02T13:20:39Z</time>
      </trkpt>
      <trkpt lat="45.96929" lon="4.69305">
        <ele>263.06</ele>
        <time>2013-12-02T13:20:54Z</time>
      </trkpt>
      <trkpt lat="45.96935" lon="4.69317">
        <ele>263.54</ele>
        <time>2013-12-02T13:21:02Z</time>
      </trkpt>
      <trkpt lat="45.96942" lon="4.69329">
        <ele>263.54</ele>
        <time>2013-12-02T13:21:11Z</time>
      </trkpt>
      <trkpt lat="45.96953" lon="4.69357">
        <ele>263.06</ele>
        <time>2013-12-02T13:21:29Z</time>
      </trkpt>
      <trkpt lat="45.96955" lon="4.69375">
        <ele>262.1</ele>
        <time>2013-12-02T13:21:43Z</time>
      </trkpt>
      <trkpt lat="45.96958" lon="4.69381">
        <ele>261.62</ele>
        <time>2013-12-02T13:21:48Z</time>
      </trkpt>
      <trkpt lat="45.96962" lon="4.69385">
        <ele>261.62</ele>
        <time>2013-12-02T13:21:52Z</time>
      </trkpt>
      <trkpt lat="45.96976" lon="4.69412">
        <ele>260.17</ele>
        <time>2013-12-02T13:22:09Z</time>
      </trkpt>
      <trkpt lat="45.96991" lon="4.69442">
        <ele>257.29</ele>
        <time>2013-12-02T13:22:27Z</time>
      </trkpt>
      <trkpt lat="45.97008" lon="4.69471">
        <ele>255.37</ele>
        <time>2013-12-02T13:22:46Z</time>
      </trkpt>
      <trkpt lat="45.97025" lon="4.69497">
        <ele>252.96</ele>
        <time>2013-12-02T13:23:04Z</time>
      </trkpt>
      <trkpt lat="45.97041" lon="4.69522">
        <ele>250.56</ele>
        <time>2013-12-02T13:23:22Z</time>
      </trkpt>
      <trkpt lat="45.97056" lon="4.69545">
        <ele>249.12</ele>
        <time>2013-12-02T13:23:39Z</time>
      </trkpt>
      <trkpt lat="45.97065" lon="4.69561">
        <ele>248.64</ele>
        <time>2013-12-02T13:23:50Z</time>
      </trkpt>
      <trkpt lat="45.9707" lon="4.69565">
        <ele>248.16</ele>
        <time>2013-12-02T13:23:56Z</time>
      </trkpt>
      <trkpt lat="45.97073" lon="4.69563">
        <ele>247.2</ele>
        <time>2013-12-02T13:24:00Z</time>
      </trkpt>
      <trkpt lat="45.97078" lon="4.69547">
        <ele>246.72</ele>
        <time>2013-12-02T13:24:11Z</time>
      </trkpt>
      <trkpt lat="45.97081" lon="4.69538">
        <ele>246.72</ele>
        <time>2013-12-02T13:24:27Z</time>
      </trkpt>
      <trkpt lat="45.97079" lon="4.69537">
        <ele>246.23</ele>
        <time>2013-12-02T13:24:53Z</time>
      </trkpt>
      <trkpt lat="45.97081" lon="4.69537">
        <ele>246.23</ele>
        <time>2013-12-02T13:25:12Z</time>
      </trkpt>
      <trkpt lat="45.97082" lon="4.69534">
        <ele>246.72</ele>
        <time>2013-12-02T13:25:32Z</time>
      </trkpt>
      <trkpt lat="45.97089" lon="4.69508">
        <ele>245.75</ele>
        <time>2013-12-02T13:25:49Z</time>
      </trkpt>
      <trkpt lat="45.97095" lon="4.69481">
        <ele>245.27</ele>
        <time>2013-12-02T13:26:06Z</time>
      </trkpt>
      <trkpt lat="45.97104" lon="4.6945">
        <ele>245.75</ele>
        <time>2013-12-02T13:26:25Z</time>
      </trkpt>
      <trkpt lat="45.97111" lon="4.69417">
        <ele>245.27</ele>
        <time>2013-12-02T13:26:44Z</time>
      </trkpt>
      <trkpt lat="45.97112" lon="4.6941">
        <ele>244.79</ele>
        <time>2013-12-02T13:26:48Z</time>
      </trkpt>
      <trkpt lat="45.97114" lon="4.69405">
        <ele>244.79</ele>
        <time>2013-12-02T13:26:51Z</time>
      </trkpt>
      <trkpt lat="45.97116" lon="4.69393">
        <ele>245.75</ele>
        <time>2013-12-02T13:26:59Z</time>
      </trkpt>
      <trkpt lat="45.97118" lon="4.69382">
        <ele>245.27</ele>
        <time>2013-12-02T13:27:05Z</time>
      </trkpt>
      <trkpt lat="45.9712" lon="4.69369">
        <ele>245.27</ele>
        <time>2013-12-02T13:27:13Z</time>
      </trkpt>
      <trkpt lat="45.97125" lon="4.69353">
        <ele>244.79</ele>
        <time>2013-12-02T13:27:22Z</time>
      </trkpt>
      <trkpt lat="45.97131" lon="4.69325">
        <ele>245.27</ele>
        <time>2013-12-02T13:27:38Z</time>
      </trkpt>
      <trkpt lat="45.97137" lon="4.69296">
        <ele>245.27</ele>
        <time>2013-12-02T13:27:55Z</time>
      </trkpt>
      <trkpt lat="45.97143" lon="4.69269">
        <ele>245.75</ele>
        <time>2013-12-02T13:28:11Z</time>
      </trkpt>
      <trkpt lat="45.97145" lon="4.69251">
        <ele>246.23</ele>
        <time>2013-12-02T13:28:21Z</time>
      </trkpt>
      <trkpt lat="45.97147" lon="4.69244">
        <ele>246.23</ele>
        <time>2013-12-02T13:28:25Z</time>
      </trkpt>
      <trkpt lat="45.97151" lon="4.69224">
        <ele>246.72</ele>
        <time>2013-12-02T13:28:40Z</time>
      </trkpt>
      <trkpt lat="45.97153" lon="4.69216">
        <ele>246.23</ele>
        <time>2013-12-02T13:28:46Z</time>
      </trkpt>
      <trkpt lat="45.97155" lon="4.69192">
        <ele>246.72</ele>
        <time>2013-12-02T13:29:01Z</time>
      </trkpt>
      <trkpt lat="45.97157" lon="4.69162">
        <ele>245.27</ele>
        <time>2013-12-02T13:29:18Z</time>
      </trkpt>
      <trkpt lat="45.97158" lon="4.69132">
        <ele>244.79</ele>
        <time>2013-12-02T13:29:35Z</time>
      </trkpt>
      <trkpt lat="45.97158" lon="4.69122">
        <ele>243.35</ele>
        <time>2013-12-02T13:29:41Z</time>
      </trkpt>
      <trkpt lat="45.97156" lon="4.69089">
        <ele>243.83</ele>
        <time>2013-12-02T13:30:00Z</time>
      </trkpt>
      <trkpt lat="45.97154" lon="4.69079">
        <ele>243.83</ele>
        <time>2013-12-02T13:30:04Z</time>
      </trkpt>
      <trkpt lat="45.97144" lon="4.69051">
        <ele>243.35</ele>
        <time>2013-12-02T13:30:22Z</time>
      </trkpt>
      <trkpt lat="45.97135" lon="4.69028">
        <ele>243.83</ele>
        <time>2013-12-02T13:30:41Z</time>
      </trkpt>
      <trkpt lat="45.97122" lon="4.68998">
        <ele>243.35</ele>
        <time>2013-12-02T13:31:00Z</time>
      </trkpt>
      <trkpt lat="45.97111" lon="4.68977">
        <ele>242.39</ele>
        <time>2013-12-02T13:31:15Z</time>
      </trkpt>
      <trkpt lat="45.9711" lon="4.68971">
        <ele>242.39</ele>
        <time>2013-12-02T13:31:19Z</time>
      </trkpt>
      <trkpt lat="45.97105" lon="4.68955">
        <ele>243.35</ele>
        <time>2013-12-02T13:31:29Z</time>
      </trkpt>
      <trkpt lat="45.97102" lon="4.68947">
        <ele>241.91</ele>
        <time>2013-12-02T13:31:34Z</time>
      </trkpt>
      <trkpt lat="45.97092" lon="4.68919">
        <ele>240.95</ele>
        <time>2013-12-02T13:31:52Z</time>
      </trkpt>
      <trkpt lat="45.97082" lon="4.68893">
        <ele>239.99</ele>
        <time>2013-12-02T13:32:09Z</time>
      </trkpt>
      <trkpt lat="45.97068" lon="4.68868">
        <ele>238.06</ele>
        <time>2013-12-02T13:32:24Z</time>
      </trkpt>
      <trkpt lat="45.97067" lon="4.68864">
        <ele>238.06</ele>
        <time>2013-12-02T13:32:27Z</time>
      </trkpt>
      <trkpt lat="45.97064" lon="4.68859">
        <ele>237.58</ele>
        <time>2013-12-02T13:32:30Z</time>
      </trkpt>
      <trkpt lat="45.97054" lon="4.68843">
        <ele>235.66</ele>
        <time>2013-12-02T13:32:41Z</time>
      </trkpt>
      <trkpt lat="45.97039" lon="4.68814">
        <ele>232.78</ele>
        <time>2013-12-02T13:33:00Z</time>
      </trkpt>
      <trkpt lat="45.97027" lon="4.68794">
        <ele>230.37</ele>
        <time>2013-12-02T13:33:15Z</time>
      </trkpt>
      <trkpt lat="45.97011" lon="4.68772">
        <ele>227.01</ele>
        <time>2013-12-02T13:33:33Z</time>
      </trkpt>
      <trkpt lat="45.96993" lon="4.6875">
        <ele>225.57</ele>
        <time>2013-12-02T13:33:51Z</time>
      </trkpt>
      <trkpt lat="45.96974" lon="4.68724">
        <ele>223.16</ele>
        <time>2013-12-02T13:34:10Z</time>
      </trkpt>
      <trkpt lat="45.96968" lon="4.68715">
        <ele>222.68</ele>
        <time>2013-12-02T13:34:17Z</time>
      </trkpt>
      <trkpt lat="45.96961" lon="4.68704">
        <ele>222.2</ele>
        <time>2013-12-02T13:34:30Z</time>
      </trkpt>
      <trkpt lat="45.96959" lon="4.68702">
        <ele>222.2</ele>
        <time>2013-12-02T13:34:42Z</time>
      </trkpt>
      <trkpt lat="45.96958" lon="4.68702">
        <ele>221.72</ele>
        <time>2013-12-02T13:34:46Z</time>
      </trkpt>
      <trkpt lat="45.96955" lon="4.68696">
        <ele>222.2</ele>
        <time>2013-12-02T13:34:51Z</time>
      </trkpt>
      <trkpt lat="45.96944" lon="4.68684">
        <ele>221.72</ele>
        <time>2013-12-02T13:35:03Z</time>
      </trkpt>
      <trkpt lat="45.96941" lon="4.6868">
        <ele>221.24</ele>
        <time>2013-12-02T13:35:07Z</time>
      </trkpt>
      <trkpt lat="45.96935" lon="4.68675">
        <ele>221.24</ele>
        <time>2013-12-02T13:35:12Z</time>
      </trkpt>
      <trkpt lat="45.96919" lon="4.68656">
        <ele>221.24</ele>
        <time>2013-12-02T13:35:29Z</time>
      </trkpt>
      <trkpt lat="45.96912" lon="4.68651">
        <ele>221.72</ele>
        <time>2013-12-02T13:35:35Z</time>
      </trkpt>
      <trkpt lat="45.96902" lon="4.68647">
        <ele>221.72</ele>
        <time>2013-12-02T13:35:44Z</time>
      </trkpt>
      <trkpt lat="45.96899" lon="4.68646">
        <ele>221.72</ele>
        <time>2013-12-02T13:35:46Z</time>
      </trkpt>
      <trkpt lat="45.96888" lon="4.68654">
        <ele>222.2</ele>
        <time>2013-12-02T13:35:56Z</time>
      </trkpt>
      <trkpt lat="45.96881" lon="4.68657">
        <ele>223.16</ele>
        <time>2013-12-02T13:36:02Z</time>
      </trkpt>
      <trkpt lat="45.9686" lon="4.68657">
        <ele>224.12</ele>
        <time>2013-12-02T13:36:19Z</time>
      </trkpt>
      <trkpt lat="45.96857" lon="4.68657">
        <ele>223.64</ele>
        <time>2013-12-02T13:36:22Z</time>
      </trkpt>
      <trkpt lat="45.96852" lon="4.68656">
        <ele>225.09</ele>
        <time>2013-12-02T13:36:26Z</time>
      </trkpt>
      <trkpt lat="45.96848" lon="4.68654">
        <ele>224.61</ele>
        <time>2013-12-02T13:36:30Z</time>
      </trkpt>
      <trkpt lat="45.96846" lon="4.68654">
        <ele>225.09</ele>
        <time>2013-12-02T13:36:32Z</time>
      </trkpt>
      <trkpt lat="45.96836" lon="4.68653">
        <ele>225.57</ele>
        <time>2013-12-02T13:36:40Z</time>
      </trkpt>
      <trkpt lat="45.96832" lon="4.68653">
        <ele>226.05</ele>
        <time>2013-12-02T13:36:43Z</time>
      </trkpt>
      <trkpt lat="45.96827" lon="4.68652">
        <ele>226.53</ele>
        <time>2013-12-02T13:36:48Z</time>
      </trkpt>
      <trkpt lat="45.9682" lon="4.68652">
        <ele>227.49</ele>
        <time>2013-12-02T13:36:54Z</time>
      </trkpt>
      <trkpt lat="45.96816" lon="4.68651">
        <ele>227.49</ele>
        <time>2013-12-02T13:36:58Z</time>
      </trkpt>
      <trkpt lat="45.96803" lon="4.68651">
        <ele>228.45</ele>
        <time>2013-12-02T13:37:10Z</time>
      </trkpt>
      <trkpt lat="45.96795" lon="4.6865">
        <ele>229.41</ele>
        <time>2013-12-02T13:37:18Z</time>
      </trkpt>
      <trkpt lat="45.96788" lon="4.68652">
        <ele>230.37</ele>
        <time>2013-12-02T13:37:24Z</time>
      </trkpt>
      <trkpt lat="45.96784" lon="4.6865">
        <ele>230.37</ele>
        <time>2013-12-02T13:37:27Z</time>
      </trkpt>
      <trkpt lat="45.96782" lon="4.68651">
        <ele>230.85</ele>
        <time>2013-12-02T13:37:29Z</time>
      </trkpt>
      <trkpt lat="45.96778" lon="4.68652">
        <ele>231.33</ele>
        <time>2013-12-02T13:37:33Z</time>
      </trkpt>
      <trkpt lat="45.96772" lon="4.68652">
        <ele>232.3</ele>
        <time>2013-12-02T13:37:38Z</time>
      </trkpt>
      <trkpt lat="45.96752" lon="4.68658">
        <ele>233.26</ele>
        <time>2013-12-02T13:37:56Z</time>
      </trkpt>
      <trkpt lat="45.96746" lon="4.68662">
        <ele>234.22</ele>
        <time>2013-12-02T13:38:02Z</time>
      </trkpt>
      <trkpt lat="45.9674" lon="4.68663">
        <ele>234.7</ele>
        <time>2013-12-02T13:38:07Z</time>
      </trkpt>
      <trkpt lat="45.96729" lon="4.68666">
        <ele>235.18</ele>
        <time>2013-12-02T13:38:17Z</time>
      </trkpt>
      <trkpt lat="45.96711" lon="4.68665">
        <ele>237.1</ele>
        <time>2013-12-02T13:38:34Z</time>
      </trkpt>
      <trkpt lat="45.96701" lon="4.68666">
        <ele>237.58</ele>
        <time>2013-12-02T13:38:43Z</time>
      </trkpt>
      <trkpt lat="45.96694" lon="4.68667">
        <ele>238.06</ele>
        <time>2013-12-02T13:38:49Z</time>
      </trkpt>
      <trkpt lat="45.96687" lon="4.68668">
        <ele>238.54</ele>
        <time>2013-12-02T13:38:55Z</time>
      </trkpt>
      <trkpt lat="45.96679" lon="4.68671">
        <ele>239.02</ele>
        <time>2013-12-02T13:39:01Z</time>
      </trkpt>
      <trkpt lat="45.9667" lon="4.68673">
        <ele>239.51</ele>
        <time>2013-12-02T13:39:09Z</time>
      </trkpt>
      <trkpt lat="45.96667" lon="4.68673">
        <ele>239.51</ele>
        <time>2013-12-02T13:39:11Z</time>
      </trkpt>
      <trkpt lat="45.96661" lon="4.68675">
        <ele>240.47</ele>
        <time>2013-12-02T13:39:16Z</time>
      </trkpt>
      <trkpt lat="45.96657" lon="4.68676">
        <ele>240.47</ele>
        <time>2013-12-02T13:39:20Z</time>
      </trkpt>
      <trkpt lat="45.96651" lon="4.68675">
        <ele>240.95</ele>
        <time>2013-12-02T13:39:29Z</time>
      </trkpt>
      <trkpt lat="45.96644" lon="4.68676">
        <ele>241.43</ele>
        <time>2013-12-02T13:39:35Z</time>
      </trkpt>
      <trkpt lat="45.96636" lon="4.68678">
        <ele>241.91</ele>
        <time>2013-12-02T13:39:43Z</time>
      </trkpt>
      <trkpt lat="45.96627" lon="4.6868">
        <ele>242.39</ele>
        <time>2013-12-02T13:39:50Z</time>
      </trkpt>
      <trkpt lat="45.96621" lon="4.6868">
        <ele>242.87</ele>
        <time>2013-12-02T13:39:55Z</time>
      </trkpt>
      <trkpt lat="45.96609" lon="4.68677">
        <ele>244.31</ele>
        <time>2013-12-02T13:40:10Z</time>
      </trkpt>
      <trkpt lat="45.96605" lon="4.68671">
        <ele>244.79</ele>
        <time>2013-12-02T13:40:21Z</time>
      </trkpt>
      <trkpt lat="45.96603" lon="4.68667">
        <ele>244.31</ele>
        <time>2013-12-02T13:40:49Z</time>
      </trkpt>
      <trkpt lat="45.96605" lon="4.68669">
        <ele>244.31</ele>
        <time>2013-12-02T13:41:02Z</time>
      </trkpt>
      <trkpt lat="45.96607" lon="4.6867">
        <ele>244.31</ele>
        <time>2013-12-02T13:41:28Z</time>
      </trkpt>
      <trkpt lat="45.96607" lon="4.68668">
        <ele>244.31</ele>
        <time>2013-12-02T13:41:59Z</time>
      </trkpt>
      <trkpt lat="45.96603" lon="4.68665">
        <ele>244.31</ele>
        <time>2013-12-02T13:42:24Z</time>
      </trkpt>
      <trkpt lat="45.96605" lon="4.68665">
        <ele>243.83</ele>
        <time>2013-12-02T13:42:42Z</time>
      </trkpt>
      <trkpt lat="45.96607" lon="4.68667">
        <ele>244.31</ele>
        <time>2013-12-02T13:43:00Z</time>
      </trkpt>
      <trkpt lat="45.96607" lon="4.68665">
        <ele>244.31</ele>
        <time>2013-12-02T13:43:27Z</time>
      </trkpt>
      <trkpt lat="45.96605" lon="4.68664">
        <ele>244.79</ele>
        <time>2013-12-02T13:43:55Z</time>
      </trkpt>
      <trkpt lat="45.96604" lon="4.68664">
        <ele>243.83</ele>
        <time>2013-12-02T13:44:25Z</time>
      </trkpt>
      <trkpt lat="45.96602" lon="4.68663">
        <ele>244.79</ele>
        <time>2013-12-02T13:44:52Z</time>
      </trkpt>
      <trkpt lat="45.96602" lon="4.68663">
        <ele>244.79</ele>
        <time>2013-12-02T13:45:06Z</time>
      </trkpt>
      <trkpt lat="45.96602" lon="4.68651">
        <ele>244.31</ele>
        <time>2013-12-02T13:45:13Z</time>
      </trkpt>
      <trkpt lat="45.96602" lon="4.68629">
        <ele>241.91</ele>
        <time>2013-12-02T13:45:29Z</time>
      </trkpt>
      <trkpt lat="45.96599" lon="4.68607">
        <ele>240.47</ele>
        <time>2013-12-02T13:45:41Z</time>
      </trkpt>
      <trkpt lat="45.96598" lon="4.68601">
        <ele>240.95</ele>
        <time>2013-12-02T13:45:45Z</time>
      </trkpt>
      <trkpt lat="45.96597" lon="4.68586">
        <ele>239.02</ele>
        <time>2013-12-02T13:45:57Z</time>
      </trkpt>
      <trkpt lat="45.96593" lon="4.68569">
        <ele>237.1</ele>
        <time>2013-12-02T13:46:08Z</time>
      </trkpt>
      <trkpt lat="45.96586" lon="4.68555">
        <ele>234.22</ele>
        <time>2013-12-02T13:46:22Z</time>
      </trkpt>
      <trkpt lat="45.96585" lon="4.68553">
        <ele>233.74</ele>
        <time>2013-12-02T13:46:24Z</time>
      </trkpt>
      <trkpt lat="45.96577" lon="4.68537">
        <ele>232.3</ele>
        <time>2013-12-02T13:46:38Z</time>
      </trkpt>
      <trkpt lat="45.9657" lon="4.68519">
        <ele>229.89</ele>
        <time>2013-12-02T13:46:53Z</time>
      </trkpt>
      <trkpt lat="45.9657" lon="4.68518">
        <ele>229.89</ele>
        <time>2013-12-02T13:46:54Z</time>
      </trkpt>
      <trkpt lat="45.96564" lon="4.68496">
        <ele>227.97</ele>
        <time>2013-12-02T13:47:09Z</time>
      </trkpt>
      <trkpt lat="45.96561" lon="4.68471">
        <ele>227.01</ele>
        <time>2013-12-02T13:47:24Z</time>
      </trkpt>
      <trkpt lat="45.96557" lon="4.68444">
        <ele>226.53</ele>
        <time>2013-12-02T13:47:41Z</time>
      </trkpt>
      <trkpt lat="45.96557" lon="4.68428">
        <ele>226.53</ele>
        <time>2013-12-02T13:47:49Z</time>
      </trkpt>
      <trkpt lat="45.96557" lon="4.68425">
        <ele>226.05</ele>
        <time>2013-12-02T13:47:51Z</time>
      </trkpt>
      <trkpt lat="45.96557" lon="4.68422">
        <ele>226.53</ele>
        <time>2013-12-02T13:47:53Z</time>
      </trkpt>
      <trkpt lat="45.96559" lon="4.68413">
        <ele>226.53</ele>
        <time>2013-12-02T13:47:57Z</time>
      </trkpt>
      <trkpt lat="45.96562" lon="4.68404">
        <ele>226.53</ele>
        <time>2013-12-02T13:48:12Z</time>
      </trkpt>
      <trkpt lat="45.96566" lon="4.68403">
        <ele>227.01</ele>
        <time>2013-12-02T13:48:16Z</time>
      </trkpt>
      <trkpt lat="45.96582" lon="4.68399">
        <ele>227.49</ele>
        <time>2013-12-02T13:48:32Z</time>
      </trkpt>
      <trkpt lat="45.96594" lon="4.68399">
        <ele>230.37</ele>
        <time>2013-12-02T13:48:48Z</time>
      </trkpt>
      <trkpt lat="45.96603" lon="4.68403">
        <ele>231.81</ele>
        <time>2013-12-02T13:48:58Z</time>
      </trkpt>
      <trkpt lat="45.96613" lon="4.68402">
        <ele>234.7</ele>
        <time>2013-12-02T13:49:12Z</time>
      </trkpt>
      <trkpt lat="45.96615" lon="4.68402">
        <ele>235.18</ele>
        <time>2013-12-02T13:49:14Z</time>
      </trkpt>
      <trkpt lat="45.96622" lon="4.68399">
        <ele>236.62</ele>
        <time>2013-12-02T13:49:22Z</time>
      </trkpt>
      <trkpt lat="45.96627" lon="4.68378">
        <ele>239.51</ele>
        <time>2013-12-02T13:49:37Z</time>
      </trkpt>
      <trkpt lat="45.96631" lon="4.68364">
        <ele>241.43</ele>
        <time>2013-12-02T13:49:49Z</time>
      </trkpt>
      <trkpt lat="45.96636" lon="4.68349">
        <ele>243.35</ele>
        <time>2013-12-02T13:50:02Z</time>
      </trkpt>
      <trkpt lat="45.9664" lon="4.68336">
        <ele>244.79</ele>
        <time>2013-12-02T13:50:13Z</time>
      </trkpt>
      <trkpt lat="45.96643" lon="4.68325">
        <ele>245.75</ele>
        <time>2013-12-02T13:50:24Z</time>
      </trkpt>
      <trkpt lat="45.96645" lon="4.68313">
        <ele>246.72</ele>
        <time>2013-12-02T13:50:35Z</time>
      </trkpt>
      <trkpt lat="45.96649" lon="4.68301">
        <ele>248.64</ele>
        <time>2013-12-02T13:50:46Z</time>
      </trkpt>
      <trkpt lat="45.96652" lon="4.68286">
        <ele>250.56</ele>
        <time>2013-12-02T13:50:59Z</time>
      </trkpt>
      <trkpt lat="45.96656" lon="4.68276">
        <ele>252</ele>
        <time>2013-12-02T13:51:10Z</time>
      </trkpt>
      <trkpt lat="45.96658" lon="4.68266">
        <ele>253.44</ele>
        <time>2013-12-02T13:51:21Z</time>
      </trkpt>
      <trkpt lat="45.96658" lon="4.68265">
        <ele>253.44</ele>
        <time>2013-12-02T13:51:22Z</time>
      </trkpt>
      <trkpt lat="45.96658" lon="4.68253">
        <ele>256.33</ele>
        <time>2013-12-02T13:51:34Z</time>
      </trkpt>
      <trkpt lat="45.9666" lon="4.6825">
        <ele>256.33</ele>
        <time>2013-12-02T13:51:37Z</time>
      </trkpt>
      <trkpt lat="45.96663" lon="4.68242">
        <ele>257.29</ele>
        <time>2013-12-02T13:51:47Z</time>
      </trkpt>
      <trkpt lat="45.96661" lon="4.6824">
        <ele>257.77</ele>
        <time>2013-12-02T13:51:49Z</time>
      </trkpt>
      <trkpt lat="45.96659" lon="4.68232">
        <ele>257.77</ele>
        <time>2013-12-02T13:51:55Z</time>
      </trkpt>
      <trkpt lat="45.9665" lon="4.68214">
        <ele>259.21</ele>
        <time>2013-12-02T13:52:09Z</time>
      </trkpt>
      <trkpt lat="45.96649" lon="4.68212">
        <ele>259.69</ele>
        <time>2013-12-02T13:52:10Z</time>
      </trkpt>
      <trkpt lat="45.96648" lon="4.68209">
        <ele>259.69</ele>
        <time>2013-12-02T13:52:12Z</time>
      </trkpt>
      <trkpt lat="45.96647" lon="4.68206">
        <ele>260.17</ele>
        <time>2013-12-02T13:52:15Z</time>
      </trkpt>
      <trkpt lat="45.96639" lon="4.68187">
        <ele>261.62</ele>
        <time>2013-12-02T13:52:30Z</time>
      </trkpt>
      <trkpt lat="45.96633" lon="4.68176">
        <ele>262.1</ele>
        <time>2013-12-02T13:52:38Z</time>
      </trkpt>
      <trkpt lat="45.96625" lon="4.68157">
        <ele>263.54</ele>
        <time>2013-12-02T13:52:52Z</time>
      </trkpt>
      <trkpt lat="45.9662" lon="4.68144">
        <ele>264.98</ele>
        <time>2013-12-02T13:53:04Z</time>
      </trkpt>
      <trkpt lat="45.96619" lon="4.68143">
        <ele>264.98</ele>
        <time>2013-12-02T13:53:05Z</time>
      </trkpt>
      <trkpt lat="45.96618" lon="4.6814">
        <ele>264.98</ele>
        <time>2013-12-02T13:53:07Z</time>
      </trkpt>
      <trkpt lat="45.96605" lon="4.68121">
        <ele>267.38</ele>
        <time>2013-12-02T13:53:23Z</time>
      </trkpt>
      <trkpt lat="45.96601" lon="4.68116">
        <ele>267.86</ele>
        <time>2013-12-02T13:53:28Z</time>
      </trkpt>
      <trkpt lat="45.96594" lon="4.68108">
        <ele>269.79</ele>
        <time>2013-12-02T13:53:36Z</time>
      </trkpt>
      <trkpt lat="45.96585" lon="4.68098">
        <ele>270.75</ele>
        <time>2013-12-02T13:53:47Z</time>
      </trkpt>
      <trkpt lat="45.96579" lon="4.68092">
        <ele>271.71</ele>
        <time>2013-12-02T13:53:54Z</time>
      </trkpt>
      <trkpt lat="45.96565" lon="4.68077">
        <ele>272.67</ele>
        <time>2013-12-02T13:54:10Z</time>
      </trkpt>
      <trkpt lat="45.96553" lon="4.68064">
        <ele>274.59</ele>
        <time>2013-12-02T13:54:24Z</time>
      </trkpt>
      <trkpt lat="45.96551" lon="4.6806">
        <ele>275.07</ele>
        <time>2013-12-02T13:54:27Z</time>
      </trkpt>
      <trkpt lat="45.96542" lon="4.68052">
        <ele>276.04</ele>
        <time>2013-12-02T13:54:37Z</time>
      </trkpt>
      <trkpt lat="45.96536" lon="4.68044">
        <ele>277.48</ele>
        <time>2013-12-02T13:54:45Z</time>
      </trkpt>
      <trkpt lat="45.96521" lon="4.68029">
        <ele>278.44</ele>
        <time>2013-12-02T13:55:00Z</time>
      </trkpt>
      <trkpt lat="45.96507" lon="4.68017">
        <ele>280.36</ele>
        <time>2013-12-02T13:55:13Z</time>
      </trkpt>
      <trkpt lat="45.96506" lon="4.68015">
        <ele>280.36</ele>
        <time>2013-12-02T13:55:15Z</time>
      </trkpt>
      <trkpt lat="45.96502" lon="4.68012">
        <ele>280.84</ele>
        <time>2013-12-02T13:55:20Z</time>
      </trkpt>
      <trkpt lat="45.96498" lon="4.68008">
        <ele>280.84</ele>
        <time>2013-12-02T13:55:25Z</time>
      </trkpt>
      <trkpt lat="45.96486" lon="4.67999">
        <ele>282.28</ele>
        <time>2013-12-02T13:55:37Z</time>
      </trkpt>
      <trkpt lat="45.9647" lon="4.67989">
        <ele>283.25</ele>
        <time>2013-12-02T13:55:53Z</time>
      </trkpt>
      <trkpt lat="45.96456" lon="4.67979">
        <ele>284.21</ele>
        <time>2013-12-02T13:56:06Z</time>
      </trkpt>
      <trkpt lat="45.96453" lon="4.67979">
        <ele>284.21</ele>
        <time>2013-12-02T13:56:09Z</time>
      </trkpt>
      <trkpt lat="45.96441" lon="4.67974">
        <ele>284.21</ele>
        <time>2013-12-02T13:56:19Z</time>
      </trkpt>
      <trkpt lat="45.96423" lon="4.67965">
        <ele>285.17</ele>
        <time>2013-12-02T13:56:36Z</time>
      </trkpt>
      <trkpt lat="45.96422" lon="4.67964">
        <ele>285.17</ele>
        <time>2013-12-02T13:56:37Z</time>
      </trkpt>
      <trkpt lat="45.96403" lon="4.67955">
        <ele>286.13</ele>
        <time>2013-12-02T13:56:54Z</time>
      </trkpt>
      <trkpt lat="45.96386" lon="4.67947">
        <ele>287.57</ele>
        <time>2013-12-02T13:57:09Z</time>
      </trkpt>
      <trkpt lat="45.96369" lon="4.67938">
        <ele>288.05</ele>
        <time>2013-12-02T13:57:24Z</time>
      </trkpt>
      <trkpt lat="45.96356" lon="4.67934">
        <ele>288.05</ele>
        <time>2013-12-02T13:57:36Z</time>
      </trkpt>
      <trkpt lat="45.96338" lon="4.6793">
        <ele>288.05</ele>
        <time>2013-12-02T13:57:52Z</time>
      </trkpt>
      <trkpt lat="45.96336" lon="4.6793">
        <ele>288.53</ele>
        <time>2013-12-02T13:57:54Z</time>
      </trkpt>
      <trkpt lat="45.96324" lon="4.67929">
        <ele>288.05</ele>
        <time>2013-12-02T13:58:05Z</time>
      </trkpt>
      <trkpt lat="45.96312" lon="4.67927">
        <ele>288.53</ele>
        <time>2013-12-02T13:58:15Z</time>
      </trkpt>
      <trkpt lat="45.96289" lon="4.67923">
        <ele>288.05</ele>
        <time>2013-12-02T13:58:34Z</time>
      </trkpt>
      <trkpt lat="45.96281" lon="4.67919">
        <ele>288.05</ele>
        <time>2013-12-02T13:58:41Z</time>
      </trkpt>
      <trkpt lat="45.96279" lon="4.67919">
        <ele>288.05</ele>
        <time>2013-12-02T13:58:43Z</time>
      </trkpt>
      <trkpt lat="45.96274" lon="4.67916">
        <ele>288.53</ele>
        <time>2013-12-02T13:58:47Z</time>
      </trkpt>
      <trkpt lat="45.96257" lon="4.67901">
        <ele>288.53</ele>
        <time>2013-12-02T13:59:04Z</time>
      </trkpt>
      <trkpt lat="45.96254" lon="4.67901">
        <ele>289.01</ele>
        <time>2013-12-02T13:59:06Z</time>
      </trkpt>
      <trkpt lat="45.96239" lon="4.67888">
        <ele>289.49</ele>
        <time>2013-12-02T13:59:20Z</time>
      </trkpt>
      <trkpt lat="45.96234" lon="4.67885">
        <ele>289.97</ele>
        <time>2013-12-02T13:59:24Z</time>
      </trkpt>
      <trkpt lat="45.96231" lon="4.67882">
        <ele>289.97</ele>
        <time>2013-12-02T13:59:27Z</time>
      </trkpt>
      <trkpt lat="45.96217" lon="4.67873">
        <ele>289.49</ele>
        <time>2013-12-02T13:59:39Z</time>
      </trkpt>
      <trkpt lat="45.96198" lon="4.67866">
        <ele>289.01</ele>
        <time>2013-12-02T13:59:54Z</time>
      </trkpt>
      <trkpt lat="45.96181" lon="4.67866">
        <ele>287.57</ele>
        <time>2013-12-02T14:00:08Z</time>
      </trkpt>
      <trkpt lat="45.96176" lon="4.67866">
        <ele>287.57</ele>
        <time>2013-12-02T14:00:12Z</time>
      </trkpt>
      <trkpt lat="45.96163" lon="4.67864">
        <ele>287.57</ele>
        <time>2013-12-02T14:00:23Z</time>
      </trkpt>
      <trkpt lat="45.96154" lon="4.67856">
        <ele>288.05</ele>
        <time>2013-12-02T14:00:34Z</time>
      </trkpt>
      <trkpt lat="45.96152" lon="4.67855">
        <ele>287.57</ele>
        <time>2013-12-02T14:00:36Z</time>
      </trkpt>
      <trkpt lat="45.9615" lon="4.67854">
        <ele>288.05</ele>
        <time>2013-12-02T14:00:38Z</time>
      </trkpt>
      <trkpt lat="45.9614" lon="4.67849">
        <ele>288.53</ele>
        <time>2013-12-02T14:00:47Z</time>
      </trkpt>
      <trkpt lat="45.96135" lon="4.67845">
        <ele>288.53</ele>
        <time>2013-12-02T14:00:52Z</time>
      </trkpt>
      <trkpt lat="45.96133" lon="4.67843">
        <ele>288.53</ele>
        <time>2013-12-02T14:00:54Z</time>
      </trkpt>
      <trkpt lat="45.9613" lon="4.67843">
        <ele>289.01</ele>
        <time>2013-12-02T14:01:09Z</time>
      </trkpt>
      <trkpt lat="45.96127" lon="4.67849">
        <ele>287.57</ele>
        <time>2013-12-02T14:01:20Z</time>
      </trkpt>
      <trkpt lat="45.9612" lon="4.67844">
        <ele>288.53</ele>
        <time>2013-12-02T14:01:34Z</time>
      </trkpt>
      <trkpt lat="45.96105" lon="4.67837">
        <ele>288.05</ele>
        <time>2013-12-02T14:01:49Z</time>
      </trkpt>
      <trkpt lat="45.96092" lon="4.67829">
        <ele>288.05</ele>
        <time>2013-12-02T14:02:03Z</time>
      </trkpt>
      <trkpt lat="45.96089" lon="4.67829">
        <ele>287.57</ele>
        <time>2013-12-02T14:02:06Z</time>
      </trkpt>
      <trkpt lat="45.96075" lon="4.67828">
        <ele>287.57</ele>
        <time>2013-12-02T14:02:18Z</time>
      </trkpt>
      <trkpt lat="45.96071" lon="4.67827">
        <ele>287.57</ele>
        <time>2013-12-02T14:02:21Z</time>
      </trkpt>
      <trkpt lat="45.96055" lon="4.67817">
        <ele>287.57</ele>
        <time>2013-12-02T14:02:36Z</time>
      </trkpt>
      <trkpt lat="45.9604" lon="4.67807">
        <ele>288.05</ele>
        <time>2013-12-02T14:02:50Z</time>
      </trkpt>
      <trkpt lat="45.96021" lon="4.67796">
        <ele>289.01</ele>
        <time>2013-12-02T14:03:04Z</time>
      </trkpt>
      <trkpt lat="45.96015" lon="4.67793">
        <ele>289.49</ele>
        <time>2013-12-02T14:03:10Z</time>
      </trkpt>
      <trkpt lat="45.96013" lon="4.67792">
        <ele>289.01</ele>
        <time>2013-12-02T14:03:12Z</time>
      </trkpt>
      <trkpt lat="45.96006" lon="4.67788">
        <ele>289.49</ele>
        <time>2013-12-02T14:03:20Z</time>
      </trkpt>
      <trkpt lat="45.96002" lon="4.67782">
        <ele>289.49</ele>
        <time>2013-12-02T14:03:24Z</time>
      </trkpt>
      <trkpt lat="45.96004" lon="4.67766">
        <ele>291.42</ele>
        <time>2013-12-02T14:03:34Z</time>
      </trkpt>
      <trkpt lat="45.96007" lon="4.67748">
        <ele>292.86</ele>
        <time>2013-12-02T14:03:47Z</time>
      </trkpt>
      <trkpt lat="45.96012" lon="4.67731">
        <ele>295.26</ele>
        <time>2013-12-02T14:04:00Z</time>
      </trkpt>
      <trkpt lat="45.9602" lon="4.67715">
        <ele>296.22</ele>
        <time>2013-12-02T14:04:13Z</time>
      </trkpt>
      <trkpt lat="45.96028" lon="4.67702">
        <ele>297.18</ele>
        <time>2013-12-02T14:04:25Z</time>
      </trkpt>
      <trkpt lat="45.9604" lon="4.67685">
        <ele>299.11</ele>
        <time>2013-12-02T14:04:41Z</time>
      </trkpt>
      <trkpt lat="45.96053" lon="4.67675">
        <ele>300.55</ele>
        <time>2013-12-02T14:04:55Z</time>
      </trkpt>
      <trkpt lat="45.96067" lon="4.67664">
        <ele>301.03</ele>
        <time>2013-12-02T14:05:09Z</time>
      </trkpt>
      <trkpt lat="45.96079" lon="4.67648">
        <ele>302.47</ele>
        <time>2013-12-02T14:05:24Z</time>
      </trkpt>
      <trkpt lat="45.9609" lon="4.67627">
        <ele>303.43</ele>
        <time>2013-12-02T14:05:39Z</time>
      </trkpt>
      <trkpt lat="45.96095" lon="4.67611">
        <ele>304.39</ele>
        <time>2013-12-02T14:05:51Z</time>
      </trkpt>
      <trkpt lat="45.96096" lon="4.67609">
        <ele>304.39</ele>
        <time>2013-12-02T14:05:54Z</time>
      </trkpt>
      <trkpt lat="45.961" lon="4.67604">
        <ele>305.36</ele>
        <time>2013-12-02T14:05:59Z</time>
      </trkpt>
      <trkpt lat="45.96107" lon="4.67576">
        <ele>306.32</ele>
        <time>2013-12-02T14:06:16Z</time>
      </trkpt>
      <trkpt lat="45.96111" lon="4.67555">
        <ele>307.76</ele>
        <time>2013-12-02T14:06:30Z</time>
      </trkpt>
      <trkpt lat="45.96115" lon="4.67539">
        <ele>309.2</ele>
        <time>2013-12-02T14:06:40Z</time>
      </trkpt>
      <trkpt lat="45.96116" lon="4.67534">
        <ele>308.72</ele>
        <time>2013-12-02T14:06:44Z</time>
      </trkpt>
      <trkpt lat="45.96123" lon="4.67505">
        <ele>310.16</ele>
        <time>2013-12-02T14:07:04Z</time>
      </trkpt>
      <trkpt lat="45.9613" lon="4.67486">
        <ele>310.64</ele>
        <time>2013-12-02T14:07:17Z</time>
      </trkpt>
      <trkpt lat="45.96131" lon="4.67467">
        <ele>311.12</ele>
        <time>2013-12-02T14:07:31Z</time>
      </trkpt>
      <trkpt lat="45.96135" lon="4.67457">
        <ele>310.64</ele>
        <time>2013-12-02T14:07:45Z</time>
      </trkpt>
      <trkpt lat="45.96133" lon="4.67459">
        <ele>310.64</ele>
        <time>2013-12-02T14:08:06Z</time>
      </trkpt>
      <trkpt lat="45.96132" lon="4.67461">
        <ele>310.16</ele>
        <time>2013-12-02T14:08:36Z</time>
      </trkpt>
      <trkpt lat="45.96134" lon="4.67459">
        <ele>310.16</ele>
        <time>2013-12-02T14:09:01Z</time>
      </trkpt>
      <trkpt lat="45.96137" lon="4.6746">
        <ele>310.16</ele>
        <time>2013-12-02T14:09:34Z</time>
      </trkpt>
      <trkpt lat="45.96139" lon="4.67459">
        <ele>310.16</ele>
        <time>2013-12-02T14:10:06Z</time>
      </trkpt>
      <trkpt lat="45.96137" lon="4.67458">
        <ele>309.68</ele>
        <time>2013-12-02T14:10:38Z</time>
      </trkpt>
      <trkpt lat="45.96135" lon="4.67461">
        <ele>310.16</ele>
        <time>2013-12-02T14:10:48Z</time>
      </trkpt>
      <trkpt lat="45.96132" lon="4.67462">
        <ele>310.16</ele>
        <time>2013-12-02T14:10:50Z</time>
      </trkpt>
      <trkpt lat="45.96113" lon="4.67456">
        <ele>309.68</ele>
        <time>2013-12-02T14:11:06Z</time>
      </trkpt>
      <trkpt lat="45.96096" lon="4.67447">
        <ele>309.68</ele>
        <time>2013-12-02T14:11:21Z</time>
      </trkpt>
      <trkpt lat="45.96075" lon="4.67433">
        <ele>309.68</ele>
        <time>2013-12-02T14:11:39Z</time>
      </trkpt>
      <trkpt lat="45.96059" lon="4.6742">
        <ele>309.2</ele>
        <time>2013-12-02T14:11:55Z</time>
      </trkpt>
      <trkpt lat="45.96056" lon="4.67418">
        <ele>309.2</ele>
        <time>2013-12-02T14:11:59Z</time>
      </trkpt>
      <trkpt lat="45.96052" lon="4.67415">
        <ele>309.2</ele>
        <time>2013-12-02T14:12:03Z</time>
      </trkpt>
      <trkpt lat="45.96043" lon="4.67401">
        <ele>309.2</ele>
        <time>2013-12-02T14:12:16Z</time>
      </trkpt>
      <trkpt lat="45.96025" lon="4.67379">
        <ele>308.72</ele>
        <time>2013-12-02T14:12:34Z</time>
      </trkpt>
      <trkpt lat="45.96013" lon="4.67365">
        <ele>308.72</ele>
        <time>2013-12-02T14:12:47Z</time>
      </trkpt>
      <trkpt lat="45.96009" lon="4.6736">
        <ele>308.24</ele>
        <time>2013-12-02T14:12:51Z</time>
      </trkpt>
      <trkpt lat="45.95993" lon="4.67345">
        <ele>307.28</ele>
        <time>2013-12-02T14:13:07Z</time>
      </trkpt>
      <trkpt lat="45.95976" lon="4.67328">
        <ele>306.32</ele>
        <time>2013-12-02T14:13:24Z</time>
      </trkpt>
      <trkpt lat="45.9596" lon="4.67311">
        <ele>305.84</ele>
        <time>2013-12-02T14:13:39Z</time>
      </trkpt>
      <trkpt lat="45.95953" lon="4.67302">
        <ele>305.36</ele>
        <time>2013-12-02T14:13:46Z</time>
      </trkpt>
      <trkpt lat="45.95935" lon="4.67286">
        <ele>304.88</ele>
        <time>2013-12-02T14:14:02Z</time>
      </trkpt>
      <trkpt lat="45.95922" lon="4.67282">
        <ele>304.39</ele>
        <time>2013-12-02T14:14:13Z</time>
      </trkpt>
      <trkpt lat="45.95917" lon="4.67281">
        <ele>304.39</ele>
        <time>2013-12-02T14:14:17Z</time>
      </trkpt>
      <trkpt lat="45.95893" lon="4.67266">
        <ele>303.43</ele>
        <time>2013-12-02T14:14:36Z</time>
      </trkpt>
      <trkpt lat="45.9587" lon="4.67256">
        <ele>302.95</ele>
        <time>2013-12-02T14:14:52Z</time>
      </trkpt>
      <trkpt lat="45.9585" lon="4.67245">
        <ele>301.03</ele>
        <time>2013-12-02T14:15:08Z</time>
      </trkpt>
      <trkpt lat="45.95828" lon="4.67234">
        <ele>300.07</ele>
        <time>2013-12-02T14:15:24Z</time>
      </trkpt>
      <trkpt lat="45.95805" lon="4.67224">
        <ele>298.63</ele>
        <time>2013-12-02T14:15:41Z</time>
      </trkpt>
      <trkpt lat="45.95781" lon="4.67215">
        <ele>297.67</ele>
        <time>2013-12-02T14:16:00Z</time>
      </trkpt>
      <trkpt lat="45.95763" lon="4.67213">
        <ele>297.67</ele>
        <time>2013-12-02T14:16:14Z</time>
      </trkpt>
      <trkpt lat="45.95744" lon="4.67209">
        <ele>296.22</ele>
        <time>2013-12-02T14:16:29Z</time>
      </trkpt>
      <trkpt lat="45.95743" lon="4.67209">
        <ele>297.18</ele>
        <time>2013-12-02T14:16:30Z</time>
      </trkpt>
      <trkpt lat="45.95734" lon="4.67205">
        <ele>296.7</ele>
        <time>2013-12-02T14:16:38Z</time>
      </trkpt>
      <trkpt lat="45.95723" lon="4.67203">
        <ele>295.74</ele>
        <time>2013-12-02T14:16:47Z</time>
      </trkpt>
      <trkpt lat="45.95702" lon="4.67197">
        <ele>295.26</ele>
        <time>2013-12-02T14:17:04Z</time>
      </trkpt>
      <trkpt lat="45.95683" lon="4.67193">
        <ele>295.26</ele>
        <time>2013-12-02T14:17:20Z</time>
      </trkpt>
      <trkpt lat="45.95667" lon="4.67185">
        <ele>294.3</ele>
        <time>2013-12-02T14:17:35Z</time>
      </trkpt>
      <trkpt lat="45.95654" lon="4.67175">
        <ele>292.86</ele>
        <time>2013-12-02T14:17:47Z</time>
      </trkpt>
      <trkpt lat="45.95635" lon="4.67166">
        <ele>291.9</ele>
        <time>2013-12-02T14:18:03Z</time>
      </trkpt>
      <trkpt lat="45.95632" lon="4.67165">
        <ele>291.9</ele>
        <time>2013-12-02T14:18:06Z</time>
      </trkpt>
      <trkpt lat="45.95614" lon="4.67163">
        <ele>290.94</ele>
        <time>2013-12-02T14:18:21Z</time>
      </trkpt>
      <trkpt lat="45.95595" lon="4.67159">
        <ele>289.49</ele>
        <time>2013-12-02T14:18:36Z</time>
      </trkpt>
      <trkpt lat="45.95577" lon="4.67155">
        <ele>288.53</ele>
        <time>2013-12-02T14:18:50Z</time>
      </trkpt>
      <trkpt lat="45.95561" lon="4.67149">
        <ele>287.57</ele>
        <time>2013-12-02T14:19:04Z</time>
      </trkpt>
      <trkpt lat="45.95552" lon="4.67146">
        <ele>287.09</ele>
        <time>2013-12-02T14:19:11Z</time>
      </trkpt>
      <trkpt lat="45.95535" lon="4.67138">
        <ele>284.69</ele>
        <time>2013-12-02T14:19:26Z</time>
      </trkpt>
      <trkpt lat="45.95523" lon="4.67127">
        <ele>284.69</ele>
        <time>2013-12-02T14:19:37Z</time>
      </trkpt>
      <trkpt lat="45.95508" lon="4.67109">
        <ele>283.25</ele>
        <time>2013-12-02T14:19:53Z</time>
      </trkpt>
      <trkpt lat="45.95507" lon="4.67109">
        <ele>283.73</ele>
        <time>2013-12-02T14:19:54Z</time>
      </trkpt>
      <trkpt lat="45.95498" lon="4.67094">
        <ele>282.77</ele>
        <time>2013-12-02T14:20:06Z</time>
      </trkpt>
      <trkpt lat="45.95482" lon="4.6707">
        <ele>281.32</ele>
        <time>2013-12-02T14:20:25Z</time>
      </trkpt>
      <trkpt lat="45.95468" lon="4.67051">
        <ele>280.36</ele>
        <time>2013-12-02T14:20:40Z</time>
      </trkpt>
      <trkpt lat="45.95456" lon="4.67028">
        <ele>278.44</ele>
        <time>2013-12-02T14:20:57Z</time>
      </trkpt>
      <trkpt lat="45.95439" lon="4.66999">
        <ele>276.52</ele>
        <time>2013-12-02T14:21:17Z</time>
      </trkpt>
      <trkpt lat="45.95424" lon="4.66976">
        <ele>275.07</ele>
        <time>2013-12-02T14:21:34Z</time>
      </trkpt>
      <trkpt lat="45.95418" lon="4.66966">
        <ele>274.59</ele>
        <time>2013-12-02T14:21:41Z</time>
      </trkpt>
      <trkpt lat="45.95398" lon="4.66945">
        <ele>273.63</ele>
        <time>2013-12-02T14:22:01Z</time>
      </trkpt>
      <trkpt lat="45.95378" lon="4.66931">
        <ele>272.19</ele>
        <time>2013-12-02T14:22:18Z</time>
      </trkpt>
      <trkpt lat="45.95361" lon="4.6692">
        <ele>271.23</ele>
        <time>2013-12-02T14:22:32Z</time>
      </trkpt>
      <trkpt lat="45.95338" lon="4.66905">
        <ele>270.27</ele>
        <time>2013-12-02T14:22:51Z</time>
      </trkpt>
      <trkpt lat="45.95319" lon="4.66892">
        <ele>269.31</ele>
        <time>2013-12-02T14:23:08Z</time>
      </trkpt>
      <trkpt lat="45.95314" lon="4.66891">
        <ele>269.31</ele>
        <time>2013-12-02T14:23:13Z</time>
      </trkpt>
      <trkpt lat="45.95301" lon="4.66876">
        <ele>269.31</ele>
        <time>2013-12-02T14:23:30Z</time>
      </trkpt>
      <trkpt lat="45.95287" lon="4.6686">
        <ele>267.38</ele>
        <time>2013-12-02T14:23:47Z</time>
      </trkpt>
      <trkpt lat="45.95276" lon="4.6684">
        <ele>265.94</ele>
        <time>2013-12-02T14:24:02Z</time>
      </trkpt>
      <trkpt lat="45.95264" lon="4.66812">
        <ele>263.54</ele>
        <time>2013-12-02T14:24:20Z</time>
      </trkpt>
      <trkpt lat="45.95253" lon="4.66789">
        <ele>261.62</ele>
        <time>2013-12-02T14:24:36Z</time>
      </trkpt>
      <trkpt lat="45.9524" lon="4.66763">
        <ele>260.17</ele>
        <time>2013-12-02T14:24:53Z</time>
      </trkpt>
      <trkpt lat="45.95226" lon="4.66737">
        <ele>258.73</ele>
        <time>2013-12-02T14:25:11Z</time>
      </trkpt>
      <trkpt lat="45.95225" lon="4.66733">
        <ele>258.25</ele>
        <time>2013-12-02T14:25:13Z</time>
      </trkpt>
      <trkpt lat="45.95221" lon="4.66725">
        <ele>258.25</ele>
        <time>2013-12-02T14:25:18Z</time>
      </trkpt>
      <trkpt lat="45.95202" lon="4.66699">
        <ele>257.29</ele>
        <time>2013-12-02T14:25:38Z</time>
      </trkpt>
      <trkpt lat="45.95182" lon="4.66686">
        <ele>256.33</ele>
        <time>2013-12-02T14:25:55Z</time>
      </trkpt>
      <trkpt lat="45.95165" lon="4.66667">
        <ele>255.85</ele>
        <time>2013-12-02T14:26:12Z</time>
      </trkpt>
      <trkpt lat="45.95157" lon="4.6666">
        <ele>255.85</ele>
        <time>2013-12-02T14:26:20Z</time>
      </trkpt>
      <trkpt lat="45.95141" lon="4.66644">
        <ele>255.37</ele>
        <time>2013-12-02T14:26:35Z</time>
      </trkpt>
      <trkpt lat="45.95125" lon="4.66626">
        <ele>255.37</ele>
        <time>2013-12-02T14:26:51Z</time>
      </trkpt>
      <trkpt lat="45.95108" lon="4.6661">
        <ele>254.89</ele>
        <time>2013-12-02T14:27:07Z</time>
      </trkpt>
      <trkpt lat="45.95106" lon="4.66608">
        <ele>254.41</ele>
        <time>2013-12-02T14:27:09Z</time>
      </trkpt>
      <trkpt lat="45.95087" lon="4.66589">
        <ele>253.93</ele>
        <time>2013-12-02T14:27:27Z</time>
      </trkpt>
      <trkpt lat="45.95073" lon="4.66576">
        <ele>253.93</ele>
        <time>2013-12-02T14:27:40Z</time>
      </trkpt>
      <trkpt lat="45.95061" lon="4.6656">
        <ele>252.96</ele>
        <time>2013-12-02T14:27:53Z</time>
      </trkpt>
      <trkpt lat="45.95056" lon="4.66555">
        <ele>252</ele>
        <time>2013-12-02T14:27:59Z</time>
      </trkpt>
      <trkpt lat="45.95051" lon="4.66554">
        <ele>252.48</ele>
        <time>2013-12-02T14:28:04Z</time>
      </trkpt>
      <trkpt lat="45.95049" lon="4.66554">
        <ele>252.48</ele>
        <time>2013-12-02T14:28:06Z</time>
      </trkpt>
      <trkpt lat="45.95044" lon="4.66553">
        <ele>252.96</ele>
        <time>2013-12-02T14:28:10Z</time>
      </trkpt>
      <trkpt lat="45.95028" lon="4.6655">
        <ele>252.96</ele>
        <time>2013-12-02T14:28:24Z</time>
      </trkpt>
      <trkpt lat="45.95011" lon="4.66547">
        <ele>253.93</ele>
        <time>2013-12-02T14:28:39Z</time>
      </trkpt>
      <trkpt lat="45.95" lon="4.66545">
        <ele>253.93</ele>
        <time>2013-12-02T14:28:49Z</time>
      </trkpt>
      <trkpt lat="45.94985" lon="4.66545">
        <ele>254.41</ele>
        <time>2013-12-02T14:29:03Z</time>
      </trkpt>
      <trkpt lat="45.94984" lon="4.66545">
        <ele>254.41</ele>
        <time>2013-12-02T14:29:04Z</time>
      </trkpt>
      <trkpt lat="45.9497" lon="4.66544">
        <ele>254.89</ele>
        <time>2013-12-02T14:29:15Z</time>
      </trkpt>
      <trkpt lat="45.94954" lon="4.66538">
        <ele>255.85</ele>
        <time>2013-12-02T14:29:30Z</time>
      </trkpt>
      <trkpt lat="45.94939" lon="4.66534">
        <ele>256.81</ele>
        <time>2013-12-02T14:29:45Z</time>
      </trkpt>
      <trkpt lat="45.9493" lon="4.66532">
        <ele>256.81</ele>
        <time>2013-12-02T14:29:52Z</time>
      </trkpt>
      <trkpt lat="45.94925" lon="4.6653">
        <ele>256.81</ele>
        <time>2013-12-02T14:29:56Z</time>
      </trkpt>
      <trkpt lat="45.94907" lon="4.66521">
        <ele>258.25</ele>
        <time>2013-12-02T14:30:10Z</time>
      </trkpt>
      <trkpt lat="45.94891" lon="4.66518">
        <ele>258.73</ele>
        <time>2013-12-02T14:30:25Z</time>
      </trkpt>
      <trkpt lat="45.94891" lon="4.66515">
        <ele>257.77</ele>
        <time>2013-12-02T14:30:41Z</time>
      </trkpt>
      <trkpt lat="45.94889" lon="4.66515">
        <ele>258.73</ele>
        <time>2013-12-02T14:31:06Z</time>
      </trkpt>
      <trkpt lat="45.9489" lon="4.66516">
        <ele>259.21</ele>
        <time>2013-12-02T14:31:23Z</time>
      </trkpt>
      <trkpt lat="45.94888" lon="4.66506">
        <ele>258.73</ele>
        <time>2013-12-02T14:31:36Z</time>
      </trkpt>
      <trkpt lat="45.94888" lon="4.66496">
        <ele>257.29</ele>
        <time>2013-12-02T14:31:41Z</time>
      </trkpt>
      <trkpt lat="45.94888" lon="4.66493">
        <ele>256.81</ele>
        <time>2013-12-02T14:31:43Z</time>
      </trkpt>
      <trkpt lat="45.94888" lon="4.6649">
        <ele>256.81</ele>
        <time>2013-12-02T14:31:46Z</time>
      </trkpt>
      <trkpt lat="45.94886" lon="4.66475">
        <ele>255.85</ele>
        <time>2013-12-02T14:31:57Z</time>
      </trkpt>
      <trkpt lat="45.9488" lon="4.66446">
        <ele>254.41</ele>
        <time>2013-12-02T14:32:15Z</time>
      </trkpt>
      <trkpt lat="45.94869" lon="4.66417">
        <ele>253.44</ele>
        <time>2013-12-02T14:32:30Z</time>
      </trkpt>
      <trkpt lat="45.94861" lon="4.66401">
        <ele>252.48</ele>
        <time>2013-12-02T14:32:42Z</time>
      </trkpt>
      <trkpt lat="45.94858" lon="4.66396">
        <ele>252.48</ele>
        <time>2013-12-02T14:32:46Z</time>
      </trkpt>
      <trkpt lat="45.94852" lon="4.66386">
        <ele>251.52</ele>
        <time>2013-12-02T14:32:54Z</time>
      </trkpt>
      <trkpt lat="45.94847" lon="4.66382">
        <ele>251.04</ele>
        <time>2013-12-02T14:32:59Z</time>
      </trkpt>
      <trkpt lat="45.94836" lon="4.66358">
        <ele>249.6</ele>
        <time>2013-12-02T14:33:18Z</time>
      </trkpt>
      <trkpt lat="45.94829" lon="4.6636">
        <ele>250.08</ele>
        <time>2013-12-02T14:33:32Z</time>
      </trkpt>
      <trkpt lat="45.94822" lon="4.66369">
        <ele>252</ele>
        <time>2013-12-02T14:33:45Z</time>
      </trkpt>
      <trkpt lat="45.94809" lon="4.66386">
        <ele>253.93</ele>
        <time>2013-12-02T14:34:03Z</time>
      </trkpt>
      <trkpt lat="45.94805" lon="4.66391">
        <ele>254.89</ele>
        <time>2013-12-02T14:34:09Z</time>
      </trkpt>
      <trkpt lat="45.94794" lon="4.66404">
        <ele>255.85</ele>
        <time>2013-12-02T14:34:22Z</time>
      </trkpt>
      <trkpt lat="45.94781" lon="4.66419">
        <ele>258.25</ele>
        <time>2013-12-02T14:34:37Z</time>
      </trkpt>
      <trkpt lat="45.94774" lon="4.66427">
        <ele>259.69</ele>
        <time>2013-12-02T14:34:46Z</time>
      </trkpt>
      <trkpt lat="45.94767" lon="4.66445">
        <ele>261.62</ele>
        <time>2013-12-02T14:35:02Z</time>
      </trkpt>
      <trkpt lat="45.9476" lon="4.66456">
        <ele>263.06</ele>
        <time>2013-12-02T14:35:13Z</time>
      </trkpt>
      <trkpt lat="45.94752" lon="4.66469">
        <ele>264.5</ele>
        <time>2013-12-02T14:35:24Z</time>
      </trkpt>
      <trkpt lat="45.94741" lon="4.66488">
        <ele>265.94</ele>
        <time>2013-12-02T14:35:40Z</time>
      </trkpt>
      <trkpt lat="45.9474" lon="4.66489">
        <ele>266.42</ele>
        <time>2013-12-02T14:35:41Z</time>
      </trkpt>
      <trkpt lat="45.94737" lon="4.66493">
        <ele>267.38</ele>
        <time>2013-12-02T14:35:45Z</time>
      </trkpt>
      <trkpt lat="45.94735" lon="4.66498">
        <ele>266.9</ele>
        <time>2013-12-02T14:35:49Z</time>
      </trkpt>
      <trkpt lat="45.94734" lon="4.665">
        <ele>266.9</ele>
        <time>2013-12-02T14:35:51Z</time>
      </trkpt>
      <trkpt lat="45.94725" lon="4.66515">
        <ele>268.83</ele>
        <time>2013-12-02T14:36:04Z</time>
      </trkpt>
      <trkpt lat="45.94714" lon="4.66532">
        <ele>269.31</ele>
        <time>2013-12-02T14:36:19Z</time>
      </trkpt>
      <trkpt lat="45.9471" lon="4.66537">
        <ele>270.27</ele>
        <time>2013-12-02T14:36:24Z</time>
      </trkpt>
      <trkpt lat="45.94707" lon="4.66541">
        <ele>270.27</ele>
        <time>2013-12-02T14:36:28Z</time>
      </trkpt>
      <trkpt lat="45.94696" lon="4.66559">
        <ele>272.19</ele>
        <time>2013-12-02T14:36:45Z</time>
      </trkpt>
      <trkpt lat="45.94688" lon="4.66571">
        <ele>273.15</ele>
        <time>2013-12-02T14:36:55Z</time>
      </trkpt>
      <trkpt lat="45.94686" lon="4.66573">
        <ele>272.67</ele>
        <time>2013-12-02T14:36:57Z</time>
      </trkpt>
      <trkpt lat="45.94683" lon="4.6658">
        <ele>273.15</ele>
        <time>2013-12-02T14:37:02Z</time>
      </trkpt>
      <trkpt lat="45.94676" lon="4.66595">
        <ele>274.11</ele>
        <time>2013-12-02T14:37:15Z</time>
      </trkpt>
      <trkpt lat="45.94669" lon="4.66614">
        <ele>275.56</ele>
        <time>2013-12-02T14:37:28Z</time>
      </trkpt>
      <trkpt lat="45.94663" lon="4.66636">
        <ele>276.04</ele>
        <time>2013-12-02T14:37:42Z</time>
      </trkpt>
      <trkpt lat="45.9466" lon="4.6665">
        <ele>276.52</ele>
        <time>2013-12-02T14:37:51Z</time>
      </trkpt>
      <trkpt lat="45.94659" lon="4.66653">
        <ele>277</ele>
        <time>2013-12-02T14:37:53Z</time>
      </trkpt>
      <trkpt lat="45.94653" lon="4.66679">
        <ele>277.48</ele>
        <time>2013-12-02T14:38:10Z</time>
      </trkpt>
      <trkpt lat="45.94652" lon="4.66682">
        <ele>277.48</ele>
        <time>2013-12-02T14:38:12Z</time>
      </trkpt>
      <trkpt lat="45.94652" lon="4.66686">
        <ele>277.96</ele>
        <time>2013-12-02T14:38:15Z</time>
      </trkpt>
      <trkpt lat="45.9465" lon="4.66692">
        <ele>277.96</ele>
        <time>2013-12-02T14:38:19Z</time>
      </trkpt>
      <trkpt lat="45.94649" lon="4.66694">
        <ele>277.96</ele>
        <time>2013-12-02T14:38:21Z</time>
      </trkpt>
      <trkpt lat="45.94649" lon="4.66697">
        <ele>278.44</ele>
        <time>2013-12-02T14:38:23Z</time>
      </trkpt>
      <trkpt lat="45.94643" lon="4.66718">
        <ele>279.88</ele>
        <time>2013-12-02T14:38:38Z</time>
      </trkpt>
      <trkpt lat="45.94641" lon="4.66721">
        <ele>279.88</ele>
        <time>2013-12-02T14:38:40Z</time>
      </trkpt>
      <trkpt lat="45.9464" lon="4.66726">
        <ele>279.88</ele>
        <time>2013-12-02T14:38:43Z</time>
      </trkpt>
      <trkpt lat="45.94639" lon="4.66728">
        <ele>279.88</ele>
        <time>2013-12-02T14:38:45Z</time>
      </trkpt>
      <trkpt lat="45.94635" lon="4.66743">
        <ele>280.84</ele>
        <time>2013-12-02T14:38:55Z</time>
      </trkpt>
      <trkpt lat="45.94629" lon="4.66759">
        <ele>281.32</ele>
        <time>2013-12-02T14:39:06Z</time>
      </trkpt>
      <trkpt lat="45.94622" lon="4.66778">
        <ele>282.77</ele>
        <time>2013-12-02T14:39:20Z</time>
      </trkpt>
      <trkpt lat="45.94615" lon="4.66793">
        <ele>283.25</ele>
        <time>2013-12-02T14:39:31Z</time>
      </trkpt>
      <trkpt lat="45.94602" lon="4.66801">
        <ele>284.69</ele>
        <time>2013-12-02T14:39:44Z</time>
      </trkpt>
      <trkpt lat="45.94593" lon="4.66806">
        <ele>284.21</ele>
        <time>2013-12-02T14:39:52Z</time>
      </trkpt>
      <trkpt lat="45.94576" lon="4.66814">
        <ele>285.65</ele>
        <time>2013-12-02T14:40:08Z</time>
      </trkpt>
      <trkpt lat="45.94572" lon="4.66816">
        <ele>285.65</ele>
        <time>2013-12-02T14:40:13Z</time>
      </trkpt>
      <trkpt lat="45.94561" lon="4.66831">
        <ele>286.13</ele>
        <time>2013-12-02T14:40:26Z</time>
      </trkpt>
      <trkpt lat="45.94559" lon="4.66835">
        <ele>286.13</ele>
        <time>2013-12-02T14:40:30Z</time>
      </trkpt>
      <trkpt lat="45.94549" lon="4.66854">
        <ele>287.09</ele>
        <time>2013-12-02T14:40:45Z</time>
      </trkpt>
      <trkpt lat="45.9454" lon="4.66869">
        <ele>288.05</ele>
        <time>2013-12-02T14:40:58Z</time>
      </trkpt>
      <trkpt lat="45.94536" lon="4.66872">
        <ele>288.05</ele>
        <time>2013-12-02T14:41:08Z</time>
      </trkpt>
      <trkpt lat="45.94531" lon="4.66884">
        <ele>289.01</ele>
        <time>2013-12-02T14:41:16Z</time>
      </trkpt>
      <trkpt lat="45.94528" lon="4.66891">
        <ele>289.01</ele>
        <time>2013-12-02T14:41:21Z</time>
      </trkpt>
      <trkpt lat="45.94524" lon="4.669">
        <ele>289.49</ele>
        <time>2013-12-02T14:41:28Z</time>
      </trkpt>
      <trkpt lat="45.9452" lon="4.66921">
        <ele>290.46</ele>
        <time>2013-12-02T14:41:42Z</time>
      </trkpt>
      <trkpt lat="45.94516" lon="4.6693">
        <ele>290.94</ele>
        <time>2013-12-02T14:41:49Z</time>
      </trkpt>
      <trkpt lat="45.94507" lon="4.66949">
        <ele>291.9</ele>
        <time>2013-12-02T14:42:04Z</time>
      </trkpt>
      <trkpt lat="45.94506" lon="4.66951">
        <ele>291.9</ele>
        <time>2013-12-02T14:42:05Z</time>
      </trkpt>
      <trkpt lat="45.94499" lon="4.66959">
        <ele>292.38</ele>
        <time>2013-12-02T14:42:16Z</time>
      </trkpt>
      <trkpt lat="45.9449" lon="4.66967">
        <ele>292.86</ele>
        <time>2013-12-02T14:42:31Z</time>
      </trkpt>
      <trkpt lat="45.94479" lon="4.66977">
        <ele>293.82</ele>
        <time>2013-12-02T14:42:45Z</time>
      </trkpt>
      <trkpt lat="45.94478" lon="4.66981">
        <ele>293.82</ele>
        <time>2013-12-02T14:42:57Z</time>
      </trkpt>
      <trkpt lat="45.94477" lon="4.66979">
        <ele>293.82</ele>
        <time>2013-12-02T14:43:32Z</time>
      </trkpt>
      <trkpt lat="45.94475" lon="4.66972">
        <ele>293.34</ele>
        <time>2013-12-02T14:43:55Z</time>
      </trkpt>
      <trkpt lat="45.94474" lon="4.66971">
        <ele>292.38</ele>
        <time>2013-12-02T14:44:11Z</time>
      </trkpt>
      <trkpt lat="45.94476" lon="4.66971">
        <ele>291.42</ele>
        <time>2013-12-02T14:44:19Z</time>
      </trkpt>
      <trkpt lat="45.94477" lon="4.66972">
        <ele>292.38</ele>
        <time>2013-12-02T14:44:41Z</time>
      </trkpt>
      <trkpt lat="45.94475" lon="4.66971">
        <ele>292.86</ele>
        <time>2013-12-02T14:45:00Z</time>
      </trkpt>
      <trkpt lat="45.94471" lon="4.66979">
        <ele>293.34</ele>
        <time>2013-12-02T14:45:23Z</time>
      </trkpt>
      <trkpt lat="45.94457" lon="4.66986">
        <ele>293.34</ele>
        <time>2013-12-02T14:45:39Z</time>
      </trkpt>
      <trkpt lat="45.94447" lon="4.67">
        <ele>294.78</ele>
        <time>2013-12-02T14:45:54Z</time>
      </trkpt>
      <trkpt lat="45.94437" lon="4.67014">
        <ele>295.26</ele>
        <time>2013-12-02T14:46:07Z</time>
      </trkpt>
      <trkpt lat="45.94424" lon="4.67033">
        <ele>296.22</ele>
        <time>2013-12-02T14:46:23Z</time>
      </trkpt>
      <trkpt lat="45.94411" lon="4.67051">
        <ele>297.18</ele>
        <time>2013-12-02T14:46:39Z</time>
      </trkpt>
      <trkpt lat="45.94399" lon="4.67064">
        <ele>296.7</ele>
        <time>2013-12-02T14:46:53Z</time>
      </trkpt>
      <trkpt lat="45.94387" lon="4.67085">
        <ele>297.67</ele>
        <time>2013-12-02T14:47:09Z</time>
      </trkpt>
      <trkpt lat="45.94376" lon="4.67103">
        <ele>298.63</ele>
        <time>2013-12-02T14:47:23Z</time>
      </trkpt>
      <trkpt lat="45.94373" lon="4.67109">
        <ele>298.63</ele>
        <time>2013-12-02T14:47:28Z</time>
      </trkpt>
      <trkpt lat="45.94361" lon="4.67122">
        <ele>298.63</ele>
        <time>2013-12-02T14:47:40Z</time>
      </trkpt>
      <trkpt lat="45.94356" lon="4.67128">
        <ele>298.63</ele>
        <time>2013-12-02T14:47:45Z</time>
      </trkpt>
      <trkpt lat="45.94341" lon="4.67149">
        <ele>298.63</ele>
        <time>2013-12-02T14:47:59Z</time>
      </trkpt>
      <trkpt lat="45.9433" lon="4.67171">
        <ele>297.67</ele>
        <time>2013-12-02T14:48:14Z</time>
      </trkpt>
      <trkpt lat="45.94318" lon="4.67194">
        <ele>296.22</ele>
        <time>2013-12-02T14:48:32Z</time>
      </trkpt>
      <trkpt lat="45.94303" lon="4.67215">
        <ele>294.3</ele>
        <time>2013-12-02T14:48:48Z</time>
      </trkpt>
      <trkpt lat="45.94288" lon="4.67234">
        <ele>292.86</ele>
        <time>2013-12-02T14:49:04Z</time>
      </trkpt>
      <trkpt lat="45.94285" lon="4.67239">
        <ele>291.9</ele>
        <time>2013-12-02T14:49:08Z</time>
      </trkpt>
      <trkpt lat="45.94282" lon="4.67243">
        <ele>291.9</ele>
        <time>2013-12-02T14:49:11Z</time>
      </trkpt>
      <trkpt lat="45.94277" lon="4.67251">
        <ele>290.94</ele>
        <time>2013-12-02T14:49:17Z</time>
      </trkpt>
      <trkpt lat="45.94265" lon="4.67273">
        <ele>289.01</ele>
        <time>2013-12-02T14:49:33Z</time>
      </trkpt>
      <trkpt lat="45.94254" lon="4.67297">
        <ele>288.05</ele>
        <time>2013-12-02T14:49:49Z</time>
      </trkpt>
      <trkpt lat="45.94243" lon="4.67319">
        <ele>286.13</ele>
        <time>2013-12-02T14:50:04Z</time>
      </trkpt>
      <trkpt lat="45.94231" lon="4.67344">
        <ele>284.69</ele>
        <time>2013-12-02T14:50:22Z</time>
      </trkpt>
      <trkpt lat="45.94224" lon="4.67362">
        <ele>284.69</ele>
        <time>2013-12-02T14:50:35Z</time>
      </trkpt>
      <trkpt lat="45.94221" lon="4.67367">
        <ele>284.21</ele>
        <time>2013-12-02T14:50:39Z</time>
      </trkpt>
      <trkpt lat="45.94205" lon="4.67379">
        <ele>283.25</ele>
        <time>2013-12-02T14:50:53Z</time>
      </trkpt>
      <trkpt lat="45.94204" lon="4.67381">
        <ele>283.25</ele>
        <time>2013-12-02T14:50:55Z</time>
      </trkpt>
      <trkpt lat="45.94194" lon="4.67396">
        <ele>282.77</ele>
        <time>2013-12-02T14:51:08Z</time>
      </trkpt>
      <trkpt lat="45.94185" lon="4.67412">
        <ele>281.8</ele>
        <time>2013-12-02T14:51:20Z</time>
      </trkpt>
      <trkpt lat="45.94177" lon="4.67431">
        <ele>281.8</ele>
        <time>2013-12-02T14:51:34Z</time>
      </trkpt>
      <trkpt lat="45.94173" lon="4.67452">
        <ele>281.8</ele>
        <time>2013-12-02T14:51:48Z</time>
      </trkpt>
      <trkpt lat="45.94167" lon="4.67474">
        <ele>282.77</ele>
        <time>2013-12-02T14:52:03Z</time>
      </trkpt>
      <trkpt lat="45.9416" lon="4.67493">
        <ele>283.25</ele>
        <time>2013-12-02T14:52:17Z</time>
      </trkpt>
      <trkpt lat="45.94154" lon="4.67516">
        <ele>283.73</ele>
        <time>2013-12-02T14:52:32Z</time>
      </trkpt>
      <trkpt lat="45.94146" lon="4.67541">
        <ele>283.73</ele>
        <time>2013-12-02T14:52:47Z</time>
      </trkpt>
      <trkpt lat="45.94141" lon="4.67564">
        <ele>283.25</ele>
        <time>2013-12-02T14:53:02Z</time>
      </trkpt>
      <trkpt lat="45.94138" lon="4.6757">
        <ele>282.77</ele>
        <time>2013-12-02T14:53:19Z</time>
      </trkpt>
      <trkpt lat="45.94134" lon="4.67571">
        <ele>282.77</ele>
        <time>2013-12-02T14:53:35Z</time>
      </trkpt>
      <trkpt lat="45.94136" lon="4.67569">
        <ele>282.28</ele>
        <time>2013-12-02T14:53:53Z</time>
      </trkpt>
      <trkpt lat="45.94132" lon="4.67576">
        <ele>283.25</ele>
        <time>2013-12-02T14:54:23Z</time>
      </trkpt>
      <trkpt lat="45.94137" lon="4.67569">
        <ele>283.25</ele>
        <time>2013-12-02T14:54:42Z</time>
      </trkpt>
      <trkpt lat="45.94141" lon="4.67592">
        <ele>283.25</ele>
        <time>2013-12-02T14:55:00Z</time>
      </trkpt>
      <trkpt lat="45.94146" lon="4.67616">
        <ele>281.8</ele>
        <time>2013-12-02T14:55:16Z</time>
      </trkpt>
      <trkpt lat="45.94146" lon="4.6763">
        <ele>281.32</ele>
        <time>2013-12-02T14:55:34Z</time>
      </trkpt>
      <trkpt lat="45.94147" lon="4.67633">
        <ele>281.32</ele>
        <time>2013-12-02T14:55:49Z</time>
      </trkpt>
      <trkpt lat="45.9415" lon="4.67635">
        <ele>281.8</ele>
        <time>2013-12-02T14:56:04Z</time>
      </trkpt>
      <trkpt lat="45.94152" lon="4.67648">
        <ele>280.84</ele>
        <time>2013-12-02T14:56:13Z</time>
      </trkpt>
      <trkpt lat="45.94152" lon="4.67671">
        <ele>279.4</ele>
        <time>2013-12-02T14:56:27Z</time>
      </trkpt>
      <trkpt lat="45.94153" lon="4.67686">
        <ele>278.44</ele>
        <time>2013-12-02T14:56:41Z</time>
      </trkpt>
      <trkpt lat="45.94155" lon="4.67718">
        <ele>276.52</ele>
        <time>2013-12-02T14:56:58Z</time>
      </trkpt>
      <trkpt lat="45.94154" lon="4.67726">
        <ele>276.04</ele>
        <time>2013-12-02T14:57:02Z</time>
      </trkpt>
      <trkpt lat="45.94149" lon="4.67762">
        <ele>273.63</ele>
        <time>2013-12-02T14:57:21Z</time>
      </trkpt>
      <trkpt lat="45.94149" lon="4.67788">
        <ele>272.19</ele>
        <time>2013-12-02T14:57:37Z</time>
      </trkpt>
      <trkpt lat="45.94148" lon="4.67811">
        <ele>268.83</ele>
        <time>2013-12-02T14:57:54Z</time>
      </trkpt>
      <trkpt lat="45.94147" lon="4.67832">
        <ele>266.9</ele>
        <time>2013-12-02T14:58:09Z</time>
      </trkpt>
      <trkpt lat="45.9414" lon="4.67851">
        <ele>264.5</ele>
        <time>2013-12-02T14:58:25Z</time>
      </trkpt>
      <trkpt lat="45.94136" lon="4.6787">
        <ele>264.5</ele>
        <time>2013-12-02T14:58:36Z</time>
      </trkpt>
      <trkpt lat="45.94131" lon="4.67894">
        <ele>264.02</ele>
        <time>2013-12-02T14:58:52Z</time>
      </trkpt>
      <trkpt lat="45.9413" lon="4.67923">
        <ele>264.98</ele>
        <time>2013-12-02T14:59:08Z</time>
      </trkpt>
      <trkpt lat="45.94129" lon="4.67932">
        <ele>265.46</ele>
        <time>2013-12-02T14:59:13Z</time>
      </trkpt>
      <trkpt lat="45.94129" lon="4.67938">
        <ele>265.46</ele>
        <time>2013-12-02T14:59:17Z</time>
      </trkpt>
      <trkpt lat="45.94128" lon="4.67952">
        <ele>266.9</ele>
        <time>2013-12-02T14:59:26Z</time>
      </trkpt>
      <trkpt lat="45.94126" lon="4.67965">
        <ele>268.35</ele>
        <time>2013-12-02T14:59:35Z</time>
      </trkpt>
      <trkpt lat="45.94123" lon="4.67986">
        <ele>271.23</ele>
        <time>2013-12-02T14:59:52Z</time>
      </trkpt>
      <trkpt lat="45.9412" lon="4.68009">
        <ele>274.11</ele>
        <time>2013-12-02T15:00:09Z</time>
      </trkpt>
      <trkpt lat="45.94117" lon="4.6802">
        <ele>275.56</ele>
        <time>2013-12-02T15:00:17Z</time>
      </trkpt>
      <trkpt lat="45.94115" lon="4.68033">
        <ele>277.48</ele>
        <time>2013-12-02T15:00:27Z</time>
      </trkpt>
      <trkpt lat="45.94113" lon="4.68048">
        <ele>279.88</ele>
        <time>2013-12-02T15:00:38Z</time>
      </trkpt>
      <trkpt lat="45.94112" lon="4.6805">
        <ele>280.36</ele>
        <time>2013-12-02T15:00:40Z</time>
      </trkpt>
      <trkpt lat="45.94111" lon="4.68063">
        <ele>281.8</ele>
        <time>2013-12-02T15:00:50Z</time>
      </trkpt>
      <trkpt lat="45.94107" lon="4.68082">
        <ele>283.25</ele>
        <time>2013-12-02T15:01:05Z</time>
      </trkpt>
      <trkpt lat="45.94104" lon="4.68086">
        <ele>283.73</ele>
        <time>2013-12-02T15:01:21Z</time>
      </trkpt>
      <trkpt lat="45.94102" lon="4.68088">
        <ele>283.25</ele>
        <time>2013-12-02T15:01:38Z</time>
      </trkpt>
      <trkpt lat="45.94104" lon="4.68089">
        <ele>283.73</ele>
        <time>2013-12-02T15:01:56Z</time>
      </trkpt>
      <trkpt lat="45.94106" lon="4.68089">
        <ele>284.21</ele>
        <time>2013-12-02T15:02:10Z</time>
      </trkpt>
      <trkpt lat="45.94114" lon="4.68088">
        <ele>284.21</ele>
        <time>2013-12-02T15:02:21Z</time>
      </trkpt>
      <trkpt lat="45.94121" lon="4.68089">
        <ele>284.21</ele>
        <time>2013-12-02T15:02:38Z</time>
      </trkpt>
      <trkpt lat="45.94123" lon="4.6809">
        <ele>284.69</ele>
        <time>2013-12-02T15:02:54Z</time>
      </trkpt>
      <trkpt lat="45.94131" lon="4.68092">
        <ele>285.17</ele>
        <time>2013-12-02T15:03:05Z</time>
      </trkpt>
      <trkpt lat="45.94149" lon="4.68093">
        <ele>285.65</ele>
        <time>2013-12-02T15:03:21Z</time>
      </trkpt>
      <trkpt lat="45.94168" lon="4.68097">
        <ele>285.65</ele>
        <time>2013-12-02T15:03:38Z</time>
      </trkpt>
      <trkpt lat="45.94182" lon="4.68102">
        <ele>287.09</ele>
        <time>2013-12-02T15:03:53Z</time>
      </trkpt>
      <trkpt lat="45.94192" lon="4.68107">
        <ele>287.57</ele>
        <time>2013-12-02T15:04:07Z</time>
      </trkpt>
      <trkpt lat="45.94197" lon="4.68109">
        <ele>287.57</ele>
        <time>2013-12-02T15:04:12Z</time>
      </trkpt>
      <trkpt lat="45.94201" lon="4.68113">
        <ele>288.05</ele>
        <time>2013-12-02T15:04:17Z</time>
      </trkpt>
      <trkpt lat="45.94203" lon="4.68115">
        <ele>287.57</ele>
        <time>2013-12-02T15:04:19Z</time>
      </trkpt>
      <trkpt lat="45.94216" lon="4.68126">
        <ele>288.53</ele>
        <time>2013-12-02T15:04:34Z</time>
      </trkpt>
      <trkpt lat="45.94224" lon="4.68134">
        <ele>288.53</ele>
        <time>2013-12-02T15:04:42Z</time>
      </trkpt>
      <trkpt lat="45.94234" lon="4.68144">
        <ele>289.01</ele>
        <time>2013-12-02T15:04:53Z</time>
      </trkpt>
      <trkpt lat="45.94239" lon="4.68151">
        <ele>289.01</ele>
        <time>2013-12-02T15:04:59Z</time>
      </trkpt>
      <trkpt lat="45.94253" lon="4.68167">
        <ele>289.49</ele>
        <time>2013-12-02T15:05:14Z</time>
      </trkpt>
      <trkpt lat="45.94256" lon="4.68169">
        <ele>289.49</ele>
        <time>2013-12-02T15:05:17Z</time>
      </trkpt>
      <trkpt lat="45.94258" lon="4.68172">
        <ele>289.49</ele>
        <time>2013-12-02T15:05:20Z</time>
      </trkpt>
      <trkpt lat="45.94264" lon="4.68179">
        <ele>289.49</ele>
        <time>2013-12-02T15:05:27Z</time>
      </trkpt>
      <trkpt lat="45.94281" lon="4.68189">
        <ele>289.49</ele>
        <time>2013-12-02T15:05:44Z</time>
      </trkpt>
      <trkpt lat="45.94283" lon="4.6819">
        <ele>289.01</ele>
        <time>2013-12-02T15:05:46Z</time>
      </trkpt>
      <trkpt lat="45.9429" lon="4.68194">
        <ele>289.49</ele>
        <time>2013-12-02T15:05:53Z</time>
      </trkpt>
      <trkpt lat="45.94291" lon="4.68197">
        <ele>289.97</ele>
        <time>2013-12-02T15:05:55Z</time>
      </trkpt>
      <trkpt lat="45.94304" lon="4.68207">
        <ele>289.49</ele>
        <time>2013-12-02T15:06:08Z</time>
      </trkpt>
      <trkpt lat="45.94306" lon="4.68209">
        <ele>289.97</ele>
        <time>2013-12-02T15:06:10Z</time>
      </trkpt>
      <trkpt lat="45.94313" lon="4.68215">
        <ele>289.49</ele>
        <time>2013-12-02T15:06:17Z</time>
      </trkpt>
      <trkpt lat="45.94317" lon="4.68218">
        <ele>289.49</ele>
        <time>2013-12-02T15:06:21Z</time>
      </trkpt>
      <trkpt lat="45.94318" lon="4.6822">
        <ele>289.49</ele>
        <time>2013-12-02T15:06:23Z</time>
      </trkpt>
      <trkpt lat="45.94331" lon="4.68233">
        <ele>289.01</ele>
        <time>2013-12-02T15:06:39Z</time>
      </trkpt>
      <trkpt lat="45.94336" lon="4.68235">
        <ele>289.49</ele>
        <time>2013-12-02T15:06:45Z</time>
      </trkpt>
      <trkpt lat="45.94344" lon="4.68234">
        <ele>289.01</ele>
        <time>2013-12-02T15:06:53Z</time>
      </trkpt>
      <trkpt lat="45.9436" lon="4.68233">
        <ele>288.53</ele>
        <time>2013-12-02T15:07:08Z</time>
      </trkpt>
      <trkpt lat="45.94378" lon="4.68229">
        <ele>289.49</ele>
        <time>2013-12-02T15:07:24Z</time>
      </trkpt>
      <trkpt lat="45.94397" lon="4.68226">
        <ele>290.46</ele>
        <time>2013-12-02T15:07:40Z</time>
      </trkpt>
      <trkpt lat="45.94415" lon="4.68225">
        <ele>291.9</ele>
        <time>2013-12-02T15:07:55Z</time>
      </trkpt>
      <trkpt lat="45.94418" lon="4.68225">
        <ele>292.38</ele>
        <time>2013-12-02T15:07:58Z</time>
      </trkpt>
      <trkpt lat="45.94424" lon="4.68227">
        <ele>291.9</ele>
        <time>2013-12-02T15:08:03Z</time>
      </trkpt>
      <trkpt lat="45.9444" lon="4.68235">
        <ele>292.38</ele>
        <time>2013-12-02T15:08:17Z</time>
      </trkpt>
      <trkpt lat="45.9446" lon="4.68245">
        <ele>292.86</ele>
        <time>2013-12-02T15:08:35Z</time>
      </trkpt>
      <trkpt lat="45.94463" lon="4.68246">
        <ele>293.34</ele>
        <time>2013-12-02T15:08:38Z</time>
      </trkpt>
      <trkpt lat="45.94469" lon="4.68249">
        <ele>292.86</ele>
        <time>2013-12-02T15:08:43Z</time>
      </trkpt>
      <trkpt lat="45.94471" lon="4.6825">
        <ele>293.34</ele>
        <time>2013-12-02T15:08:45Z</time>
      </trkpt>
      <trkpt lat="45.94477" lon="4.68252">
        <ele>293.34</ele>
        <time>2013-12-02T15:08:50Z</time>
      </trkpt>
      <trkpt lat="45.94481" lon="4.68254">
        <ele>293.82</ele>
        <time>2013-12-02T15:08:54Z</time>
      </trkpt>
      <trkpt lat="45.94487" lon="4.68256">
        <ele>294.3</ele>
        <time>2013-12-02T15:08:59Z</time>
      </trkpt>
      <trkpt lat="45.94493" lon="4.6826">
        <ele>294.3</ele>
        <time>2013-12-02T15:09:05Z</time>
      </trkpt>
      <trkpt lat="45.94508" lon="4.68269">
        <ele>295.74</ele>
        <time>2013-12-02T15:09:19Z</time>
      </trkpt>
      <trkpt lat="45.94512" lon="4.68272">
        <ele>295.74</ele>
        <time>2013-12-02T15:09:23Z</time>
      </trkpt>
      <trkpt lat="45.94515" lon="4.68277">
        <ele>296.22</ele>
        <time>2013-12-02T15:09:27Z</time>
      </trkpt>
      <trkpt lat="45.94518" lon="4.68281">
        <ele>296.7</ele>
        <time>2013-12-02T15:09:31Z</time>
      </trkpt>
      <trkpt lat="45.94524" lon="4.68291">
        <ele>297.67</ele>
        <time>2013-12-02T15:09:40Z</time>
      </trkpt>
      <trkpt lat="45.94525" lon="4.68294">
        <ele>298.15</ele>
        <time>2013-12-02T15:09:42Z</time>
      </trkpt>
      <trkpt lat="45.94532" lon="4.68305">
        <ele>299.59</ele>
        <time>2013-12-02T15:09:51Z</time>
      </trkpt>
      <trkpt lat="45.94533" lon="4.68307">
        <ele>299.59</ele>
        <time>2013-12-02T15:09:53Z</time>
      </trkpt>
      <trkpt lat="45.94534" lon="4.68309">
        <ele>299.59</ele>
        <time>2013-12-02T15:09:55Z</time>
      </trkpt>
      <trkpt lat="45.94536" lon="4.68311">
        <ele>300.07</ele>
        <time>2013-12-02T15:09:57Z</time>
      </trkpt>
      <trkpt lat="45.94537" lon="4.68313">
        <ele>300.55</ele>
        <time>2013-12-02T15:09:59Z</time>
      </trkpt>
      <trkpt lat="45.94539" lon="4.68315">
        <ele>300.55</ele>
        <time>2013-12-02T15:10:01Z</time>
      </trkpt>
      <trkpt lat="45.9455" lon="4.6833">
        <ele>302.47</ele>
        <time>2013-12-02T15:10:17Z</time>
      </trkpt>
      <trkpt lat="45.94563" lon="4.68341">
        <ele>303.91</ele>
        <time>2013-12-02T15:10:32Z</time>
      </trkpt>
      <trkpt lat="45.94576" lon="4.6835">
        <ele>305.84</ele>
        <time>2013-12-02T15:10:47Z</time>
      </trkpt>
      <trkpt lat="45.94578" lon="4.68351">
        <ele>306.32</ele>
        <time>2013-12-02T15:10:49Z</time>
      </trkpt>
      <trkpt lat="45.94587" lon="4.68356">
        <ele>307.28</ele>
        <time>2013-12-02T15:10:59Z</time>
      </trkpt>
      <trkpt lat="45.94593" lon="4.68359">
        <ele>308.24</ele>
        <time>2013-12-02T15:11:06Z</time>
      </trkpt>
      <trkpt lat="45.94606" lon="4.68367">
        <ele>310.16</ele>
        <time>2013-12-02T15:11:18Z</time>
      </trkpt>
      <trkpt lat="45.9461" lon="4.6837">
        <ele>310.64</ele>
        <time>2013-12-02T15:11:23Z</time>
      </trkpt>
      <trkpt lat="45.94612" lon="4.68371">
        <ele>310.64</ele>
        <time>2013-12-02T15:11:25Z</time>
      </trkpt>
      <trkpt lat="45.94624" lon="4.68377">
        <ele>312.57</ele>
        <time>2013-12-02T15:11:38Z</time>
      </trkpt>
      <trkpt lat="45.94635" lon="4.68383">
        <ele>313.53</ele>
        <time>2013-12-02T15:11:49Z</time>
      </trkpt>
      <trkpt lat="45.94641" lon="4.68387">
        <ele>314.49</ele>
        <time>2013-12-02T15:11:55Z</time>
      </trkpt>
      <trkpt lat="45.94656" lon="4.68394">
        <ele>315.93</ele>
        <time>2013-12-02T15:12:10Z</time>
      </trkpt>
      <trkpt lat="45.9467" lon="4.68399">
        <ele>317.85</ele>
        <time>2013-12-02T15:12:24Z</time>
      </trkpt>
      <trkpt lat="45.94674" lon="4.684">
        <ele>318.33</ele>
        <time>2013-12-02T15:12:29Z</time>
      </trkpt>
      <trkpt lat="45.9468" lon="4.68402">
        <ele>318.81</ele>
        <time>2013-12-02T15:12:34Z</time>
      </trkpt>
      <trkpt lat="45.94691" lon="4.68409">
        <ele>319.78</ele>
        <time>2013-12-02T15:12:45Z</time>
      </trkpt>
      <trkpt lat="45.94703" lon="4.68419">
        <ele>320.26</ele>
        <time>2013-12-02T15:12:57Z</time>
      </trkpt>
      <trkpt lat="45.94708" lon="4.68424">
        <ele>320.74</ele>
        <time>2013-12-02T15:13:03Z</time>
      </trkpt>
      <trkpt lat="45.94723" lon="4.68436">
        <ele>321.7</ele>
        <time>2013-12-02T15:13:19Z</time>
      </trkpt>
      <trkpt lat="45.94725" lon="4.68437">
        <ele>321.7</ele>
        <time>2013-12-02T15:13:21Z</time>
      </trkpt>
      <trkpt lat="45.94737" lon="4.6845">
        <ele>322.18</ele>
        <time>2013-12-02T15:13:34Z</time>
      </trkpt>
      <trkpt lat="45.94742" lon="4.68457">
        <ele>323.14</ele>
        <time>2013-12-02T15:13:40Z</time>
      </trkpt>
      <trkpt lat="45.94744" lon="4.68461">
        <ele>323.62</ele>
        <time>2013-12-02T15:13:44Z</time>
      </trkpt>
      <trkpt lat="45.94747" lon="4.68464">
        <ele>323.14</ele>
        <time>2013-12-02T15:13:47Z</time>
      </trkpt>
      <trkpt lat="45.94758" lon="4.68479">
        <ele>325.06</ele>
        <time>2013-12-02T15:14:00Z</time>
      </trkpt>
      <trkpt lat="45.94768" lon="4.68495">
        <ele>326.02</ele>
        <time>2013-12-02T15:14:14Z</time>
      </trkpt>
      <trkpt lat="45.94778" lon="4.68509">
        <ele>327.47</ele>
        <time>2013-12-02T15:14:27Z</time>
      </trkpt>
      <trkpt lat="45.94781" lon="4.68512">
        <ele>327.95</ele>
        <time>2013-12-02T15:14:30Z</time>
      </trkpt>
      <trkpt lat="45.94785" lon="4.68514">
        <ele>327.95</ele>
        <time>2013-12-02T15:14:34Z</time>
      </trkpt>
      <trkpt lat="45.94788" lon="4.68518">
        <ele>328.43</ele>
        <time>2013-12-02T15:14:38Z</time>
      </trkpt>
      <trkpt lat="45.94803" lon="4.68531">
        <ele>328.91</ele>
        <time>2013-12-02T15:14:53Z</time>
      </trkpt>
      <trkpt lat="45.94819" lon="4.68545">
        <ele>329.87</ele>
        <time>2013-12-02T15:15:09Z</time>
      </trkpt>
      <trkpt lat="45.94831" lon="4.68557">
        <ele>330.35</ele>
        <time>2013-12-02T15:15:22Z</time>
      </trkpt>
      <trkpt lat="45.94837" lon="4.68565">
        <ele>330.35</ele>
        <time>2013-12-02T15:15:29Z</time>
      </trkpt>
      <trkpt lat="45.94844" lon="4.68574">
        <ele>331.79</ele>
        <time>2013-12-02T15:15:38Z</time>
      </trkpt>
      <trkpt lat="45.94858" lon="4.68586">
        <ele>331.31</ele>
        <time>2013-12-02T15:15:53Z</time>
      </trkpt>
      <trkpt lat="45.94868" lon="4.68595">
        <ele>331.79</ele>
        <time>2013-12-02T15:16:03Z</time>
      </trkpt>
      <trkpt lat="45.94885" lon="4.6861">
        <ele>331.79</ele>
        <time>2013-12-02T15:16:19Z</time>
      </trkpt>
      <trkpt lat="45.94896" lon="4.68616">
        <ele>331.31</ele>
        <time>2013-12-02T15:16:29Z</time>
      </trkpt>
      <trkpt lat="45.94913" lon="4.68613">
        <ele>330.83</ele>
        <time>2013-12-02T15:16:44Z</time>
      </trkpt>
      <trkpt lat="45.9493" lon="4.68607">
        <ele>329.39</ele>
        <time>2013-12-02T15:17:01Z</time>
      </trkpt>
      <trkpt lat="45.94935" lon="4.68607">
        <ele>329.87</ele>
        <time>2013-12-02T15:17:06Z</time>
      </trkpt>
      <trkpt lat="45.94938" lon="4.68609">
        <ele>329.39</ele>
        <time>2013-12-02T15:17:09Z</time>
      </trkpt>
      <trkpt lat="45.9496" lon="4.68605">
        <ele>327.47</ele>
        <time>2013-12-02T15:17:26Z</time>
      </trkpt>
      <trkpt lat="45.9498" lon="4.68605">
        <ele>326.99</ele>
        <time>2013-12-02T15:17:43Z</time>
      </trkpt>
      <trkpt lat="45.95001" lon="4.68611">
        <ele>325.06</ele>
        <time>2013-12-02T15:18:00Z</time>
      </trkpt>
      <trkpt lat="45.95007" lon="4.68613">
        <ele>324.58</ele>
        <time>2013-12-02T15:18:13Z</time>
      </trkpt>
      <trkpt lat="45.95011" lon="4.68613">
        <ele>324.1</ele>
        <time>2013-12-02T15:18:20Z</time>
      </trkpt>
      <trkpt lat="45.95018" lon="4.68612">
        <ele>324.1</ele>
        <time>2013-12-02T15:18:27Z</time>
      </trkpt>
      <trkpt lat="45.95025" lon="4.68608">
        <ele>323.14</ele>
        <time>2013-12-02T15:18:34Z</time>
      </trkpt>
      <trkpt lat="45.95047" lon="4.68607">
        <ele>321.7</ele>
        <time>2013-12-02T15:18:52Z</time>
      </trkpt>
      <trkpt lat="45.95059" lon="4.68605">
        <ele>320.26</ele>
        <time>2013-12-02T15:19:05Z</time>
      </trkpt>
      <trkpt lat="45.95076" lon="4.686">
        <ele>318.33</ele>
        <time>2013-12-02T15:19:22Z</time>
      </trkpt>
      <trkpt lat="45.95097" lon="4.6859">
        <ele>316.41</ele>
        <time>2013-12-02T15:19:41Z</time>
      </trkpt>
      <trkpt lat="45.951" lon="4.68588">
        <ele>315.93</ele>
        <time>2013-12-02T15:19:44Z</time>
      </trkpt>
      <trkpt lat="45.95104" lon="4.68586">
        <ele>315.45</ele>
        <time>2013-12-02T15:19:48Z</time>
      </trkpt>
      <trkpt lat="45.95121" lon="4.68579">
        <ele>314.01</ele>
        <time>2013-12-02T15:20:04Z</time>
      </trkpt>
      <trkpt lat="45.95137" lon="4.68571">
        <ele>311.6</ele>
        <time>2013-12-02T15:20:19Z</time>
      </trkpt>
      <trkpt lat="45.95154" lon="4.68562">
        <ele>309.2</ele>
        <time>2013-12-02T15:20:36Z</time>
      </trkpt>
      <trkpt lat="45.95171" lon="4.68554">
        <ele>307.28</ele>
        <time>2013-12-02T15:20:52Z</time>
      </trkpt>
      <trkpt lat="45.95183" lon="4.68552">
        <ele>305.36</ele>
        <time>2013-12-02T15:21:08Z</time>
      </trkpt>
      <trkpt lat="45.95199" lon="4.68547">
        <ele>303.43</ele>
        <time>2013-12-02T15:21:23Z</time>
      </trkpt>
      <trkpt lat="45.95216" lon="4.68541">
        <ele>301.51</ele>
        <time>2013-12-02T15:21:39Z</time>
      </trkpt>
      <trkpt lat="45.95229" lon="4.68535">
        <ele>300.07</ele>
        <time>2013-12-02T15:21:53Z</time>
      </trkpt>
      <trkpt lat="45.95246" lon="4.6853">
        <ele>299.11</ele>
        <time>2013-12-02T15:22:09Z</time>
      </trkpt>
      <trkpt lat="45.95248" lon="4.68528">
        <ele>298.63</ele>
        <time>2013-12-02T15:22:11Z</time>
      </trkpt>
      <trkpt lat="45.95254" lon="4.68526">
        <ele>298.63</ele>
        <time>2013-12-02T15:22:16Z</time>
      </trkpt>
      <trkpt lat="45.95272" lon="4.68519">
        <ele>296.7</ele>
        <time>2013-12-02T15:22:33Z</time>
      </trkpt>
      <trkpt lat="45.95289" lon="4.68513">
        <ele>295.26</ele>
        <time>2013-12-02T15:22:49Z</time>
      </trkpt>
      <trkpt lat="45.95302" lon="4.68506">
        <ele>294.3</ele>
        <time>2013-12-02T15:23:01Z</time>
      </trkpt>
      <trkpt lat="45.95322" lon="4.68499">
        <ele>293.34</ele>
        <time>2013-12-02T15:23:18Z</time>
      </trkpt>
      <trkpt lat="45.95338" lon="4.68492">
        <ele>291.9</ele>
        <time>2013-12-02T15:23:33Z</time>
      </trkpt>
      <trkpt lat="45.95349" lon="4.68487">
        <ele>290.46</ele>
        <time>2013-12-02T15:23:45Z</time>
      </trkpt>
      <trkpt lat="45.95352" lon="4.68492">
        <ele>290.46</ele>
        <time>2013-12-02T15:23:52Z</time>
      </trkpt>
      <trkpt lat="45.95351" lon="4.68498">
        <ele>289.49</ele>
        <time>2013-12-02T15:23:56Z</time>
      </trkpt>
      <trkpt lat="45.95348" lon="4.68519">
        <ele>288.05</ele>
        <time>2013-12-02T15:24:08Z</time>
      </trkpt>
      <trkpt lat="45.95346" lon="4.68527">
        <ele>287.09</ele>
        <time>2013-12-02T15:24:13Z</time>
      </trkpt>
      <trkpt lat="45.95341" lon="4.68556">
        <ele>285.17</ele>
        <time>2013-12-02T15:24:31Z</time>
      </trkpt>
      <trkpt lat="45.95332" lon="4.68585">
        <ele>282.77</ele>
        <time>2013-12-02T15:24:50Z</time>
      </trkpt>
      <trkpt lat="45.9533" lon="4.68592">
        <ele>282.77</ele>
        <time>2013-12-02T15:24:54Z</time>
      </trkpt>
      <trkpt lat="45.9532" lon="4.68619">
        <ele>280.84</ele>
        <time>2013-12-02T15:25:13Z</time>
      </trkpt>
      <trkpt lat="45.9532" lon="4.6865">
        <ele>278.44</ele>
        <time>2013-12-02T15:25:32Z</time>
      </trkpt>
      <trkpt lat="45.9532" lon="4.68657">
        <ele>278.44</ele>
        <time>2013-12-02T15:25:36Z</time>
      </trkpt>
      <trkpt lat="45.9532" lon="4.68687">
        <ele>277.48</ele>
        <time>2013-12-02T15:25:53Z</time>
      </trkpt>
      <trkpt lat="45.95321" lon="4.68692">
        <ele>277.96</ele>
        <time>2013-12-02T15:25:56Z</time>
      </trkpt>
      <trkpt lat="45.95322" lon="4.68715">
        <ele>278.92</ele>
        <time>2013-12-02T15:26:09Z</time>
      </trkpt>
      <trkpt lat="45.95321" lon="4.68723">
        <ele>278.92</ele>
        <time>2013-12-02T15:26:14Z</time>
      </trkpt>
      <trkpt lat="45.95322" lon="4.68755">
        <ele>279.88</ele>
        <time>2013-12-02T15:26:33Z</time>
      </trkpt>
      <trkpt lat="45.95323" lon="4.68759">
        <ele>280.36</ele>
        <time>2013-12-02T15:26:35Z</time>
      </trkpt>
      <trkpt lat="45.95324" lon="4.68785">
        <ele>281.8</ele>
        <time>2013-12-02T15:26:51Z</time>
      </trkpt>
      <trkpt lat="45.95325" lon="4.68811">
        <ele>284.21</ele>
        <time>2013-12-02T15:27:07Z</time>
      </trkpt>
      <trkpt lat="45.95327" lon="4.68835">
        <ele>286.13</ele>
        <time>2013-12-02T15:27:23Z</time>
      </trkpt>
      <trkpt lat="45.95329" lon="4.68845">
        <ele>286.13</ele>
        <time>2013-12-02T15:27:29Z</time>
      </trkpt>
      <trkpt lat="45.95329" lon="4.6885">
        <ele>287.57</ele>
        <time>2013-12-02T15:27:32Z</time>
      </trkpt>
      <trkpt lat="45.95329" lon="4.68853">
        <ele>287.09</ele>
        <time>2013-12-02T15:27:34Z</time>
      </trkpt>
      <trkpt lat="45.95328" lon="4.68879">
        <ele>289.97</ele>
        <time>2013-12-02T15:27:51Z</time>
      </trkpt>
      <trkpt lat="45.95328" lon="4.68881">
        <ele>289.97</ele>
        <time>2013-12-02T15:27:52Z</time>
      </trkpt>
      <trkpt lat="45.95327" lon="4.68904">
        <ele>291.42</ele>
        <time>2013-12-02T15:28:07Z</time>
      </trkpt>
      <trkpt lat="45.95327" lon="4.68906">
        <ele>291.42</ele>
        <time>2013-12-02T15:28:08Z</time>
      </trkpt>
      <trkpt lat="45.95327" lon="4.68909">
        <ele>291.9</ele>
        <time>2013-12-02T15:28:10Z</time>
      </trkpt>
      <trkpt lat="45.95327" lon="4.68916">
        <ele>292.38</ele>
        <time>2013-12-02T15:28:14Z</time>
      </trkpt>
      <trkpt lat="45.95326" lon="4.68938">
        <ele>293.82</ele>
        <time>2013-12-02T15:28:29Z</time>
      </trkpt>
      <trkpt lat="45.95329" lon="4.68961">
        <ele>296.7</ele>
        <time>2013-12-02T15:28:46Z</time>
      </trkpt>
      <trkpt lat="45.95336" lon="4.68973">
        <ele>296.7</ele>
        <time>2013-12-02T15:28:59Z</time>
      </trkpt>
      <trkpt lat="45.9534" lon="4.68975">
        <ele>296.22</ele>
        <time>2013-12-02T15:29:03Z</time>
      </trkpt>
      <trkpt lat="45.95352" lon="4.68989">
        <ele>298.15</ele>
        <time>2013-12-02T15:29:18Z</time>
      </trkpt>
      <trkpt lat="45.9537" lon="4.69009">
        <ele>298.15</ele>
        <time>2013-12-02T15:29:36Z</time>
      </trkpt>
      <trkpt lat="45.95379" lon="4.69025">
        <ele>299.11</ele>
        <time>2013-12-02T15:29:50Z</time>
      </trkpt>
      <trkpt lat="45.9538" lon="4.6903">
        <ele>299.59</ele>
        <time>2013-12-02T15:29:55Z</time>
      </trkpt>
      <trkpt lat="45.95383" lon="4.69038">
        <ele>299.59</ele>
        <time>2013-12-02T15:30:00Z</time>
      </trkpt>
      <trkpt lat="45.95389" lon="4.69051">
        <ele>300.55</ele>
        <time>2013-12-02T15:30:11Z</time>
      </trkpt>
      <trkpt lat="45.95392" lon="4.69056">
        <ele>299.59</ele>
        <time>2013-12-02T15:30:15Z</time>
      </trkpt>
      <trkpt lat="45.954" lon="4.69062">
        <ele>300.07</ele>
        <time>2013-12-02T15:30:23Z</time>
      </trkpt>
      <trkpt lat="45.95403" lon="4.69062">
        <ele>300.55</ele>
        <time>2013-12-02T15:30:26Z</time>
      </trkpt>
      <trkpt lat="45.9541" lon="4.69066">
        <ele>300.55</ele>
        <time>2013-12-02T15:30:32Z</time>
      </trkpt>
      <trkpt lat="45.95419" lon="4.69071">
        <ele>300.07</ele>
        <time>2013-12-02T15:30:40Z</time>
      </trkpt>
      <trkpt lat="45.95423" lon="4.69073">
        <ele>300.07</ele>
        <time>2013-12-02T15:30:43Z</time>
      </trkpt>
      <trkpt lat="45.95442" lon="4.69086">
        <ele>300.07</ele>
        <time>2013-12-02T15:31:00Z</time>
      </trkpt>
      <trkpt lat="45.95444" lon="4.69086">
        <ele>299.59</ele>
        <time>2013-12-02T15:31:02Z</time>
      </trkpt>
      <trkpt lat="45.95448" lon="4.69089">
        <ele>300.55</ele>
        <time>2013-12-02T15:31:06Z</time>
      </trkpt>
      <trkpt lat="45.9546" lon="4.691">
        <ele>300.07</ele>
        <time>2013-12-02T15:31:18Z</time>
      </trkpt>
      <trkpt lat="45.95466" lon="4.69108">
        <ele>299.59</ele>
        <time>2013-12-02T15:31:24Z</time>
      </trkpt>
      <trkpt lat="45.95469" lon="4.69116">
        <ele>299.59</ele>
        <time>2013-12-02T15:31:30Z</time>
      </trkpt>
      <trkpt lat="45.95473" lon="4.69141">
        <ele>300.55</ele>
        <time>2013-12-02T15:31:47Z</time>
      </trkpt>
      <trkpt lat="45.95478" lon="4.69163">
        <ele>300.55</ele>
        <time>2013-12-02T15:32:02Z</time>
      </trkpt>
      <trkpt lat="45.95481" lon="4.69167">
        <ele>301.03</ele>
        <time>2013-12-02T15:32:07Z</time>
      </trkpt>
      <trkpt lat="45.95493" lon="4.69186">
        <ele>301.99</ele>
        <time>2013-12-02T15:32:22Z</time>
      </trkpt>
      <trkpt lat="45.95498" lon="4.69199">
        <ele>301.99</ele>
        <time>2013-12-02T15:32:38Z</time>
      </trkpt>
      <trkpt lat="45.95502" lon="4.69203">
        <ele>301.99</ele>
        <time>2013-12-02T15:32:44Z</time>
      </trkpt>
      <trkpt lat="45.95513" lon="4.69214">
        <ele>303.91</ele>
        <time>2013-12-02T15:32:57Z</time>
      </trkpt>
      <trkpt lat="45.95525" lon="4.6923">
        <ele>304.88</ele>
        <time>2013-12-02T15:33:11Z</time>
      </trkpt>
      <trkpt lat="45.9554" lon="4.69242">
        <ele>305.36</ele>
        <time>2013-12-02T15:33:27Z</time>
      </trkpt>
      <trkpt lat="45.95558" lon="4.69247">
        <ele>306.32</ele>
        <time>2013-12-02T15:33:43Z</time>
      </trkpt>
      <trkpt lat="45.95576" lon="4.69248">
        <ele>307.28</ele>
        <time>2013-12-02T15:34:01Z</time>
      </trkpt>
      <trkpt lat="45.95596" lon="4.69245">
        <ele>307.28</ele>
        <time>2013-12-02T15:34:16Z</time>
      </trkpt>
      <trkpt lat="45.95601" lon="4.69243">
        <ele>307.76</ele>
        <time>2013-12-02T15:34:23Z</time>
      </trkpt>
      <trkpt lat="45.9561" lon="4.69243">
        <ele>307.76</ele>
        <time>2013-12-02T15:34:34Z</time>
      </trkpt>
      <trkpt lat="45.95612" lon="4.69243">
        <ele>309.2</ele>
        <time>2013-12-02T15:34:36Z</time>
      </trkpt>
      <trkpt lat="45.95615" lon="4.69243">
        <ele>307.76</ele>
        <time>2013-12-02T15:34:40Z</time>
      </trkpt>
      <trkpt lat="45.95619" lon="4.69243">
        <ele>307.76</ele>
        <time>2013-12-02T15:34:44Z</time>
      </trkpt>
      <trkpt lat="45.95629" lon="4.69251">
        <ele>307.76</ele>
        <time>2013-12-02T15:34:59Z</time>
      </trkpt>
      <trkpt lat="45.95631" lon="4.69282">
        <ele>309.2</ele>
        <time>2013-12-02T15:35:17Z</time>
      </trkpt>
      <trkpt lat="45.95633" lon="4.6929">
        <ele>309.2</ele>
        <time>2013-12-02T15:35:21Z</time>
      </trkpt>
      <trkpt lat="45.95631" lon="4.69306">
        <ele>310.64</ele>
        <time>2013-12-02T15:35:32Z</time>
      </trkpt>
      <trkpt lat="45.95632" lon="4.69323">
        <ele>311.6</ele>
        <time>2013-12-02T15:35:45Z</time>
      </trkpt>
      <trkpt lat="45.95632" lon="4.6933">
        <ele>311.6</ele>
        <time>2013-12-02T15:35:49Z</time>
      </trkpt>
      <trkpt lat="45.95631" lon="4.69334">
        <ele>311.12</ele>
        <time>2013-12-02T15:35:51Z</time>
      </trkpt>
      <trkpt lat="45.95631" lon="4.69344">
        <ele>311.6</ele>
        <time>2013-12-02T15:35:57Z</time>
      </trkpt>
      <trkpt lat="45.9563" lon="4.69362">
        <ele>312.57</ele>
        <time>2013-12-02T15:36:11Z</time>
      </trkpt>
      <trkpt lat="45.9563" lon="4.69364">
        <ele>313.53</ele>
        <time>2013-12-02T15:36:13Z</time>
      </trkpt>
      <trkpt lat="45.95628" lon="4.69384">
        <ele>314.01</ele>
        <time>2013-12-02T15:36:27Z</time>
      </trkpt>
      <trkpt lat="45.95635" lon="4.69396">
        <ele>315.45</ele>
        <time>2013-12-02T15:36:40Z</time>
      </trkpt>
      <trkpt lat="45.95638" lon="4.69402">
        <ele>314.97</ele>
        <time>2013-12-02T15:36:45Z</time>
      </trkpt>
      <trkpt lat="45.95644" lon="4.69418">
        <ele>316.41</ele>
        <time>2013-12-02T15:36:59Z</time>
      </trkpt>
      <trkpt lat="45.95643" lon="4.69417">
        <ele>316.41</ele>
        <time>2013-12-02T15:37:13Z</time>
      </trkpt>
      <trkpt lat="45.95647" lon="4.69426">
        <ele>316.89</ele>
        <time>2013-12-02T15:37:21Z</time>
      </trkpt>
      <trkpt lat="45.95652" lon="4.69434">
        <ele>316.89</ele>
        <time>2013-12-02T15:37:30Z</time>
      </trkpt>
      <trkpt lat="45.95656" lon="4.6944">
        <ele>317.37</ele>
        <time>2013-12-02T15:37:35Z</time>
      </trkpt>
      <trkpt lat="45.95661" lon="4.69451">
        <ele>317.37</ele>
        <time>2013-12-02T15:37:43Z</time>
      </trkpt>
      <trkpt lat="45.95664" lon="4.69458">
        <ele>317.85</ele>
        <time>2013-12-02T15:37:48Z</time>
      </trkpt>
      <trkpt lat="45.95672" lon="4.69477">
        <ele>318.33</ele>
        <time>2013-12-02T15:38:02Z</time>
      </trkpt>
      <trkpt lat="45.95675" lon="4.69485">
        <ele>318.81</ele>
        <time>2013-12-02T15:38:07Z</time>
      </trkpt>
      <trkpt lat="45.95678" lon="4.69493">
        <ele>319.3</ele>
        <time>2013-12-02T15:38:13Z</time>
      </trkpt>
      <trkpt lat="45.95681" lon="4.69503">
        <ele>319.3</ele>
        <time>2013-12-02T15:38:29Z</time>
      </trkpt>
      <trkpt lat="45.95682" lon="4.69504">
        <ele>319.78</ele>
        <time>2013-12-02T15:38:30Z</time>
      </trkpt>
      <trkpt lat="45.95689" lon="4.69514">
        <ele>319.78</ele>
        <time>2013-12-02T15:38:38Z</time>
      </trkpt>
      <trkpt lat="45.95696" lon="4.69529">
        <ele>320.26</ele>
        <time>2013-12-02T15:38:49Z</time>
      </trkpt>
      <trkpt lat="45.95701" lon="4.69538">
        <ele>321.22</ele>
        <time>2013-12-02T15:38:56Z</time>
      </trkpt>
      <trkpt lat="45.95703" lon="4.69541">
        <ele>320.74</ele>
        <time>2013-12-02T15:38:59Z</time>
      </trkpt>
      <trkpt lat="45.95714" lon="4.6956">
        <ele>321.7</ele>
        <time>2013-12-02T15:39:14Z</time>
      </trkpt>
      <trkpt lat="45.95724" lon="4.69575">
        <ele>322.18</ele>
        <time>2013-12-02T15:39:29Z</time>
      </trkpt>
      <trkpt lat="45.95725" lon="4.69579">
        <ele>322.66</ele>
        <time>2013-12-02T15:39:32Z</time>
      </trkpt>
      <trkpt lat="45.95726" lon="4.69582">
        <ele>322.66</ele>
        <time>2013-12-02T15:39:34Z</time>
      </trkpt>
      <trkpt lat="45.95734" lon="4.69592">
        <ele>323.62</ele>
        <time>2013-12-02T15:39:42Z</time>
      </trkpt>
      <trkpt lat="45.95748" lon="4.69615">
        <ele>323.14</ele>
        <time>2013-12-02T15:39:59Z</time>
      </trkpt>
      <trkpt lat="45.95752" lon="4.69621">
        <ele>323.62</ele>
        <time>2013-12-02T15:40:03Z</time>
      </trkpt>
      <trkpt lat="45.95757" lon="4.6963">
        <ele>324.1</ele>
        <time>2013-12-02T15:40:09Z</time>
      </trkpt>
      <trkpt lat="45.95759" lon="4.69633">
        <ele>323.62</ele>
        <time>2013-12-02T15:40:11Z</time>
      </trkpt>
      <trkpt lat="45.95762" lon="4.69641">
        <ele>323.62</ele>
        <time>2013-12-02T15:40:16Z</time>
      </trkpt>
      <trkpt lat="45.95768" lon="4.69648">
        <ele>324.58</ele>
        <time>2013-12-02T15:40:23Z</time>
      </trkpt>
      <trkpt lat="45.95775" lon="4.69655">
        <ele>324.58</ele>
        <time>2013-12-02T15:40:32Z</time>
      </trkpt>
      <trkpt lat="45.95777" lon="4.69655">
        <ele>324.58</ele>
        <time>2013-12-02T15:40:34Z</time>
      </trkpt>
      <trkpt lat="45.95779" lon="4.69654">
        <ele>324.58</ele>
        <time>2013-12-02T15:40:36Z</time>
      </trkpt>
      <trkpt lat="45.95784" lon="4.69657">
        <ele>324.1</ele>
        <time>2013-12-02T15:40:40Z</time>
      </trkpt>
      <trkpt lat="45.95788" lon="4.69663">
        <ele>324.1</ele>
        <time>2013-12-02T15:40:45Z</time>
      </trkpt>
      <trkpt lat="45.95791" lon="4.69677">
        <ele>324.1</ele>
        <time>2013-12-02T15:40:55Z</time>
      </trkpt>
      <trkpt lat="45.95798" lon="4.69698">
        <ele>325.54</ele>
        <time>2013-12-02T15:41:11Z</time>
      </trkpt>
      <trkpt lat="45.95808" lon="4.69713">
        <ele>325.54</ele>
        <time>2013-12-02T15:41:24Z</time>
      </trkpt>
      <trkpt lat="45.95813" lon="4.69723">
        <ele>326.02</ele>
        <time>2013-12-02T15:41:31Z</time>
      </trkpt>
      <trkpt lat="45.95822" lon="4.69734">
        <ele>326.5</ele>
        <time>2013-12-02T15:41:40Z</time>
      </trkpt>
      <trkpt lat="45.95833" lon="4.69755">
        <ele>326.5</ele>
        <time>2013-12-02T15:41:55Z</time>
      </trkpt>
      <trkpt lat="45.95835" lon="4.6976">
        <ele>326.02</ele>
        <time>2013-12-02T15:41:58Z</time>
      </trkpt>
      <trkpt lat="45.95847" lon="4.69784">
        <ele>326.99</ele>
        <time>2013-12-02T15:42:14Z</time>
      </trkpt>
      <trkpt lat="45.95852" lon="4.69793">
        <ele>327.95</ele>
        <time>2013-12-02T15:42:21Z</time>
      </trkpt>
      <trkpt lat="45.95861" lon="4.69809">
        <ele>327.47</ele>
        <time>2013-12-02T15:42:33Z</time>
      </trkpt>
      <trkpt lat="45.95867" lon="4.69826">
        <ele>328.43</ele>
        <time>2013-12-02T15:42:47Z</time>
      </trkpt>
      <trkpt lat="45.95873" lon="4.69848">
        <ele>328.43</ele>
        <time>2013-12-02T15:43:02Z</time>
      </trkpt>
      <trkpt lat="45.95878" lon="4.6987">
        <ele>328.43</ele>
        <time>2013-12-02T15:43:15Z</time>
      </trkpt>
      <trkpt lat="45.95889" lon="4.69898">
        <ele>328.43</ele>
        <time>2013-12-02T15:43:31Z</time>
      </trkpt>
      <trkpt lat="45.95895" lon="4.69923">
        <ele>327.95</ele>
        <time>2013-12-02T15:43:45Z</time>
      </trkpt>
      <trkpt lat="45.95902" lon="4.69952">
        <ele>327.47</ele>
        <time>2013-12-02T15:44:01Z</time>
      </trkpt>
      <trkpt lat="45.95907" lon="4.69974">
        <ele>327.95</ele>
        <time>2013-12-02T15:44:16Z</time>
      </trkpt>
      <trkpt lat="45.95909" lon="4.6998">
        <ele>327.95</ele>
        <time>2013-12-02T15:44:20Z</time>
      </trkpt>
      <trkpt lat="45.95918" lon="4.70002">
        <ele>327.47</ele>
        <time>2013-12-02T15:44:34Z</time>
      </trkpt>
      <trkpt lat="45.95928" lon="4.70023">
        <ele>327.95</ele>
        <time>2013-12-02T15:44:49Z</time>
      </trkpt>
      <trkpt lat="45.95939" lon="4.70042">
        <ele>328.43</ele>
        <time>2013-12-02T15:45:04Z</time>
      </trkpt>
      <trkpt lat="45.95945" lon="4.70052">
        <ele>328.43</ele>
        <time>2013-12-02T15:45:12Z</time>
      </trkpt>
      <trkpt lat="45.9595" lon="4.7006">
        <ele>328.43</ele>
        <time>2013-12-02T15:45:18Z</time>
      </trkpt>
      <trkpt lat="45.95965" lon="4.70076">
        <ele>328.43</ele>
        <time>2013-12-02T15:45:34Z</time>
      </trkpt>
      <trkpt lat="45.95968" lon="4.70078">
        <ele>328.91</ele>
        <time>2013-12-02T15:45:37Z</time>
      </trkpt>
      <trkpt lat="45.95974" lon="4.70085">
        <ele>329.39</ele>
        <time>2013-12-02T15:45:43Z</time>
      </trkpt>
      <trkpt lat="45.95977" lon="4.70089">
        <ele>328.91</ele>
        <time>2013-12-02T15:45:46Z</time>
      </trkpt>
      <trkpt lat="45.95995" lon="4.70087">
        <ele>329.87</ele>
        <time>2013-12-02T15:46:02Z</time>
      </trkpt>
      <trkpt lat="45.96016" lon="4.70087">
        <ele>329.39</ele>
        <time>2013-12-02T15:46:20Z</time>
      </trkpt>
      <trkpt lat="45.96038" lon="4.70083">
        <ele>329.39</ele>
        <time>2013-12-02T15:46:38Z</time>
      </trkpt>
      <trkpt lat="45.96059" lon="4.70075">
        <ele>329.39</ele>
        <time>2013-12-02T15:46:55Z</time>
      </trkpt>
      <trkpt lat="45.96079" lon="4.70069">
        <ele>329.87</ele>
        <time>2013-12-02T15:47:12Z</time>
      </trkpt>
      <trkpt lat="45.961" lon="4.70066">
        <ele>329.39</ele>
        <time>2013-12-02T15:47:30Z</time>
      </trkpt>
      <trkpt lat="45.9612" lon="4.70067">
        <ele>329.39</ele>
        <time>2013-12-02T15:47:46Z</time>
      </trkpt>
      <trkpt lat="45.96137" lon="4.70068">
        <ele>329.87</ele>
        <time>2013-12-02T15:48:00Z</time>
      </trkpt>
      <trkpt lat="45.96157" lon="4.70068">
        <ele>330.35</ele>
        <time>2013-12-02T15:48:17Z</time>
      </trkpt>
      <trkpt lat="45.96179" lon="4.70065">
        <ele>332.75</ele>
        <time>2013-12-02T15:48:35Z</time>
      </trkpt>
      <trkpt lat="45.9618" lon="4.70065">
        <ele>332.75</ele>
        <time>2013-12-02T15:48:36Z</time>
      </trkpt>
      <trkpt lat="45.96194" lon="4.70065">
        <ele>333.71</ele>
        <time>2013-12-02T15:48:50Z</time>
      </trkpt>
      <trkpt lat="45.9621" lon="4.70065">
        <ele>334.2</ele>
        <time>2013-12-02T15:49:06Z</time>
      </trkpt>
      <trkpt lat="45.96227" lon="4.70067">
        <ele>336.6</ele>
        <time>2013-12-02T15:49:20Z</time>
      </trkpt>
      <trkpt lat="45.96237" lon="4.70069">
        <ele>337.08</ele>
        <time>2013-12-02T15:49:28Z</time>
      </trkpt>
      <trkpt lat="45.96253" lon="4.70071">
        <ele>337.56</ele>
        <time>2013-12-02T15:49:41Z</time>
      </trkpt>
      <trkpt lat="45.96263" lon="4.70071">
        <ele>339.48</ele>
        <time>2013-12-02T15:49:49Z</time>
      </trkpt>
      <trkpt lat="45.96272" lon="4.70065">
        <ele>339.48</ele>
        <time>2013-12-02T15:49:58Z</time>
      </trkpt>
      <trkpt lat="45.96283" lon="4.70054">
        <ele>340.44</ele>
        <time>2013-12-02T15:50:11Z</time>
      </trkpt>
      <trkpt lat="45.96285" lon="4.70053">
        <ele>341.41</ele>
        <time>2013-12-02T15:50:14Z</time>
      </trkpt>
      <trkpt lat="45.96296" lon="4.70044">
        <ele>341.41</ele>
        <time>2013-12-02T15:50:25Z</time>
      </trkpt>
      <trkpt lat="45.96309" lon="4.7003">
        <ele>342.85</ele>
        <time>2013-12-02T15:50:38Z</time>
      </trkpt>
      <trkpt lat="45.96312" lon="4.70013">
        <ele>343.33</ele>
        <time>2013-12-02T15:50:47Z</time>
      </trkpt>
      <trkpt lat="45.96316" lon="4.70007">
        <ele>343.33</ele>
        <time>2013-12-02T15:50:51Z</time>
      </trkpt>
      <trkpt lat="45.96319" lon="4.69997">
        <ele>343.81</ele>
        <time>2013-12-02T15:50:57Z</time>
      </trkpt>
      <trkpt lat="45.96326" lon="4.69985">
        <ele>343.81</ele>
        <time>2013-12-02T15:51:10Z</time>
      </trkpt>
      <trkpt lat="45.9634" lon="4.69974">
        <ele>343.81</ele>
        <time>2013-12-02T15:51:23Z</time>
      </trkpt>
      <trkpt lat="45.96363" lon="4.69966">
        <ele>344.29</ele>
        <time>2013-12-02T15:51:41Z</time>
      </trkpt>
      <trkpt lat="45.9638" lon="4.69965">
        <ele>345.25</ele>
        <time>2013-12-02T15:51:55Z</time>
      </trkpt>
      <trkpt lat="45.96393" lon="4.6998">
        <ele>346.21</ele>
        <time>2013-12-02T15:52:09Z</time>
      </trkpt>
      <trkpt lat="45.96402" lon="4.70001">
        <ele>347.65</ele>
        <time>2013-12-02T15:52:23Z</time>
      </trkpt>
      <trkpt lat="45.96403" lon="4.70002">
        <ele>348.13</ele>
        <time>2013-12-02T15:52:24Z</time>
      </trkpt>
      <trkpt lat="45.96405" lon="4.70004">
        <ele>348.13</ele>
        <time>2013-12-02T15:52:26Z</time>
      </trkpt>
      <trkpt lat="45.96408" lon="4.70008">
        <ele>348.13</ele>
        <time>2013-12-02T15:52:30Z</time>
      </trkpt>
      <trkpt lat="45.96418" lon="4.70016">
        <ele>348.62</ele>
        <time>2013-12-02T15:52:40Z</time>
      </trkpt>
      <trkpt lat="45.96431" lon="4.7003">
        <ele>348.62</ele>
        <time>2013-12-02T15:52:54Z</time>
      </trkpt>
      <trkpt lat="45.96432" lon="4.70031">
        <ele>349.1</ele>
        <time>2013-12-02T15:52:55Z</time>
      </trkpt>
      <trkpt lat="45.96434" lon="4.70058">
        <ele>348.62</ele>
        <time>2013-12-02T15:53:10Z</time>
      </trkpt>
      <trkpt lat="45.96434" lon="4.70062">
        <ele>349.1</ele>
        <time>2013-12-02T15:53:12Z</time>
      </trkpt>
      <trkpt lat="45.96434" lon="4.70069">
        <ele>349.1</ele>
        <time>2013-12-02T15:53:16Z</time>
      </trkpt>
      <trkpt lat="45.96435" lon="4.70088">
        <ele>349.58</ele>
        <time>2013-12-02T15:53:28Z</time>
      </trkpt>
      <trkpt lat="45.96436" lon="4.70096">
        <ele>349.1</ele>
        <time>2013-12-02T15:53:33Z</time>
      </trkpt>
      <trkpt lat="45.96433" lon="4.70121">
        <ele>349.58</ele>
        <time>2013-12-02T15:54:41Z</time>
      </trkpt>
    </trkseg>
  </trk>
</gpx>